DL5646 / N873RW 7700 Squawk Report (21st of November, 2020)

Aircraft E170 Reg No. N873RW Age N/A
Model Emb-170 Jet engines 2 First flight 09-06
Registered 31-01-17 Rollout 08-06 Delivered 21-09-06
Construction No. 17000144 Line No. N/A Series 100SU
ADSHEX AC0307 Airline name Delta Connection Owner Republic Airways
Airfield based Indianapolis-International~IN~N First tracked N/A

Flight history for N873RW

Route Flight No Date Playback
La Guardia (LGA) - Indianapolis Intl (IND) DL5608 2020-11-30 00:51:00
La Guardia (LGA) - Kansas City Intl (MCI) - La Guardia (LGA) DL5626 2020-11-29 22:07:00
Raleigh Durham Intl (RDU) - La Guardia (LGA) DL5615 2020-11-29 13:48:00
Logan International Airport (BOS) - Raleigh Durham Intl (RDU) DL5691 2020-11-29 12:32:00
La Guardia (LGA) - Logan International Airport (BOS) DL5722 2020-11-28 23:12:00
Lambert St Louis Intl (STL) - La Guardia (LGA) DL5609 2020-11-28 21:33:00
La Guardia (LGA) - Lambert St Louis Intl (STL) DL5624 2020-11-28 18:43:00
Raleigh Durham Intl (RDU) - La Guardia (LGA) DL5615 2020-11-28 15:36:00
La Guardia (LGA) - Raleigh Durham Intl (RDU) DL5805 2020-11-28 02:05:00
Raleigh Durham Intl (RDU) - La Guardia (LGA) DL5613 2020-11-27 23:44:00
John F Kennedy Intl (JFK) - Raleigh Durham Intl (RDU) DL5812 2020-11-27 21:14:00
Ronald Reagan Washington Natl (DCA) - John F Kennedy Intl (JFK) DL5657 2020-11-27 19:54:00
John F Kennedy Intl (JFK) - Ronald Reagan Washington Natl (DCA) DL5679 2020-11-26 21:02:00
Ronald Reagan Washington Natl (DCA) - John F Kennedy Intl (JFK) DL5657 2020-11-26 19:56:00
John F Kennedy Intl (JFK) - Ronald Reagan Washington Natl (DCA) N/A 2020-11-26 15:47:00
Raleigh Durham Intl (RDU) - John F Kennedy Intl (JFK) DL5604 2020-11-25 23:36:00
La Guardia (LGA) - Raleigh Durham Intl (RDU) DL5818 2020-11-25 20:08:00
Ronald Reagan Washington Natl (DCA) - La Guardia (LGA) N/A 2020-11-25 17:21:00
La Guardia (LGA) - Ronald Reagan Washington Natl (DCA) DL5594 2020-11-25 14:17:00
Nashville Intl (BNA) - La Guardia (LGA) DL5764 2020-11-25 13:18:00
Time Lat Lon Altitude Heading Speed Vertical Rate
2020-11-21 21:22:21 GMT 39.874489 -75.239128 0 334 10 0
2020-11-21 21:22:18 GMT 39.874592 -75.239197 0 334 10 0
2020-11-21 21:22:15 GMT 39.874470 -75.239128 0 335 12 0
2020-11-21 21:22:12 GMT 39.874310 -75.239059 0 356 11 0
2020-11-21 21:22:09 GMT 39.874180 -75.239037 0 11 14 0
2020-11-21 21:22:06 GMT 39.874008 -75.239052 0 50 16 0
2020-11-21 21:22:03 GMT 39.873840 -75.239258 0 63 14 0
2020-11-21 21:22:00 GMT 39.873791 -75.239464 0 71 13 0
2020-11-21 21:21:57 GMT 39.873730 -75.239677 0 76 14 0
2020-11-21 21:21:54 GMT 39.873680 -75.239891 0 82 12 0
2020-11-21 21:21:51 GMT 39.873669 -75.240120 0 75 13 0
2020-11-21 21:21:48 GMT 39.873619 -75.240372 0 72 13 0
2020-11-21 21:21:45 GMT 39.873569 -75.240570 0 71 14 0
2020-11-21 21:21:42 GMT 39.873539 -75.240822 0 68 13 0
2020-11-21 21:21:39 GMT 39.873451 -75.241051 0 75 12 0
2020-11-21 21:21:36 GMT 39.873421 -75.241226 0 78 15 0
2020-11-21 21:21:33 GMT 39.873390 -75.241501 0 65 13 0
2020-11-21 21:21:30 GMT 39.873310 -75.241730 0 27 12 0
2020-11-21 21:21:27 GMT 39.873180 -75.241837 0 5 10 0
2020-11-21 21:21:24 GMT 39.873009 -75.241898 0 8 10 0
2020-11-21 21:21:21 GMT 39.872879 -75.241920 0 11 9 0
2020-11-21 21:21:18 GMT 39.872730 -75.241913 0 48 9 0
2020-11-21 21:21:15 GMT 39.872551 -75.242111 0 73 4 0
2020-11-21 21:21:12 GMT 39.872551 -75.242111 0 74 4 0
2020-11-21 21:21:09 GMT 39.872520 -75.242218 0 77 2 0
2020-11-21 21:21:05 GMT 39.872532 -75.242241 0 77 0 0
2020-11-21 21:21:01 GMT 39.872532 -75.242241 0 77 0 0
2020-11-21 21:20:56 GMT 39.872540 -75.242241 0 76 0 0
2020-11-21 21:20:53 GMT 39.872551 -75.242249 0 76 1 0
2020-11-21 21:20:50 GMT 39.872540 -75.242233 0 79 0 0
2020-11-21 21:20:47 GMT 39.872540 -75.242218 0 79 0 0
2020-11-21 21:20:44 GMT 39.872551 -75.242233 0 79 1 0
2020-11-21 21:20:41 GMT 39.872520 -75.242233 0 82 1 0
2020-11-21 21:20:38 GMT 39.872520 -75.242264 0 81 2 0
2020-11-21 21:20:35 GMT 39.872520 -75.242287 0 78 4 0
2020-11-21 21:20:32 GMT 39.872501 -75.242348 0 69 3 0
2020-11-21 21:20:29 GMT 39.872509 -75.242439 0 60 3 0
2020-11-21 21:20:26 GMT 39.872459 -75.242462 0 78 10 0
2020-11-21 21:20:23 GMT 39.872429 -75.242638 0 74 13 0
2020-11-21 21:20:20 GMT 39.872391 -75.242867 0 74 14 0
2020-11-21 21:20:17 GMT 39.872349 -75.243134 0 75 14 0
2020-11-21 21:20:14 GMT 39.872280 -75.243370 0 76 15 0
2020-11-21 21:20:11 GMT 39.872231 -75.243637 0 70 17 0
2020-11-21 21:20:08 GMT 39.872169 -75.243912 0 78 17 0
2020-11-21 21:20:05 GMT 39.872089 -75.244492 0 75 17 0
2020-11-21 21:19:59 GMT 39.871979 -75.244720 0 82 18 0
2020-11-21 21:19:56 GMT 39.871941 -75.245041 0 80 18 0
2020-11-21 21:19:53 GMT 39.871910 -75.245369 0 76 18 0
2020-11-21 21:19:50 GMT 39.871761 -75.245972 0 70 17 0
2020-11-21 21:19:47 GMT 39.871761 -75.245972 0 78 15 0
2020-11-21 21:19:44 GMT 39.871712 -75.246208 0 77 17 0
2020-11-21 21:19:41 GMT 39.871681 -75.246513 0 73 15 0
2020-11-21 21:19:38 GMT 39.871601 -75.246773 0 77 16 0
2020-11-21 21:19:35 GMT 39.871571 -75.247040 0 85 15 0
2020-11-21 21:19:32 GMT 39.871540 -75.247292 0 73 14 0
2020-11-21 21:19:29 GMT 39.871361 -75.247818 0 72 16 0
2020-11-21 21:19:26 GMT 39.871361 -75.247818 0 85 16 0
2020-11-21 21:19:23 GMT 39.871342 -75.248093 0 68 15 0
2020-11-21 21:19:20 GMT 39.871281 -75.248352 0 82 14 0
2020-11-21 21:19:17 GMT 39.871250 -75.248596 0 74 15 0
2020-11-21 21:19:14 GMT 39.871170 -75.249046 0 73 12 0
2020-11-21 21:19:11 GMT 39.871170 -75.249046 0 68 11 0
2020-11-21 21:19:08 GMT 39.871132 -75.249268 0 74 9 0
2020-11-21 21:19:05 GMT 39.871071 -75.249413 0 83 8 0
2020-11-21 21:19:02 GMT 39.871071 -75.249550 0 85 5 0
2020-11-21 21:18:59 GMT 39.871052 -75.249748 0 90 4 0
2020-11-21 21:18:56 GMT 39.871059 -75.249771 0 92 0 0
2020-11-21 21:18:53 GMT 39.871029 -75.249786 0 94 0 0
2020-11-21 21:18:50 GMT 39.871021 -75.249786 0 94 0 0
2020-11-21 21:18:47 GMT 39.871010 -75.249786 0 94 0 0
2020-11-21 21:18:44 GMT 39.871021 -75.249786 0 93 1 0
2020-11-21 21:18:41 GMT 39.871040 -75.249786 0 94 1 0
2020-11-21 21:18:38 GMT 39.871021 -75.249786 0 106 0 0
2020-11-21 21:18:35 GMT 39.870991 -75.249786 0 101 0 0
2020-11-21 21:18:32 GMT 39.871029 -75.249786 0 97 0 0
2020-11-21 21:18:26 GMT 39.871029 -75.249802 0 97 1 0
2020-11-21 21:18:23 GMT 39.871010 -75.249802 0 94 1 0
2020-11-21 21:18:17 GMT 39.871010 -75.249786 0 92 2 0
2020-11-21 21:18:14 GMT 39.871010 -75.249802 0 84 4 0
2020-11-21 21:18:11 GMT 39.871021 -75.249870 0 89 6 0
2020-11-21 21:18:08 GMT 39.870941 -75.250229 0 73 13 0
2020-11-21 21:18:05 GMT 39.870941 -75.250229 0 75 12 0
2020-11-21 21:18:02 GMT 39.870892 -75.250473 0 70 12 0
2020-11-21 21:17:59 GMT 39.870819 -75.250687 0 80 14 0
2020-11-21 21:17:56 GMT 39.870781 -75.250961 0 78 13 0
2020-11-21 21:17:53 GMT 39.870762 -75.251152 0 77 11 0
2020-11-21 21:17:50 GMT 39.870708 -75.251411 0 71 12 0
2020-11-21 21:17:47 GMT 39.870651 -75.251640 0 73 12 0
2020-11-21 21:17:44 GMT 39.870621 -75.251831 0 70 13 0
2020-11-21 21:17:41 GMT 39.870548 -75.252060 0 81 12 0
2020-11-21 21:17:38 GMT 39.870522 -75.252258 0 77 13 0
2020-11-21 21:17:35 GMT 39.870491 -75.252480 0 72 14 0
2020-11-21 21:17:32 GMT 39.870441 -75.252693 0 74 16 0
2020-11-21 21:17:29 GMT 39.870380 -75.252953 0 71 15 0
2020-11-21 21:17:26 GMT 39.870331 -75.253258 0 69 15 0
2020-11-21 21:17:23 GMT 39.870251 -75.253502 0 80 14 0
2020-11-21 21:17:20 GMT 39.870152 -75.254044 0 73 16 0
2020-11-21 21:17:14 GMT 39.870110 -75.254318 0 74 15 0
2020-11-21 21:17:11 GMT 39.870041 -75.254578 0 78 14 0
2020-11-21 21:17:08 GMT 39.870010 -75.254852 0 76 14 0
2020-11-21 21:17:05 GMT 39.869968 -75.255089 0 79 13 0
2020-11-21 21:17:02 GMT 39.869930 -75.255318 0 72 12 0
2020-11-21 21:16:59 GMT 39.869789 -75.255783 0 76 13 0
2020-11-21 21:16:56 GMT 39.869789 -75.255783 0 89 12 0
2020-11-21 21:16:53 GMT 39.869850 -75.256027 0 70 13 0
2020-11-21 21:16:50 GMT 39.869709 -75.256180 0 83 11 0
2020-11-21 21:16:47 GMT 39.869690 -75.256378 0 79 11 0
2020-11-21 21:16:44 GMT 39.869701 -75.256592 0 66 12 0
2020-11-21 21:16:41 GMT 39.869621 -75.256783 0 72 10 0
2020-11-21 21:16:38 GMT 39.869572 -75.256989 0 78 10 0
2020-11-21 21:16:35 GMT 39.869541 -75.257172 0 78 10 0
2020-11-21 21:16:32 GMT 39.869530 -75.257339 0 68 7 0
2020-11-21 21:16:29 GMT 39.869511 -75.257477 0 38 8 0
2020-11-21 21:16:26 GMT 39.869419 -75.257538 0 36 6 0
2020-11-21 21:16:23 GMT 39.869370 -75.257660 0 8 6 0
2020-11-21 21:16:20 GMT 39.869228 -75.257660 0 356 7 0
2020-11-21 21:16:17 GMT 39.869228 -75.257660 0 347 8 0
2020-11-21 21:16:14 GMT 39.869160 -75.257660 0 349 10 0
2020-11-21 21:16:11 GMT 39.869019 -75.257637 0 347 12 0
2020-11-21 21:16:08 GMT 39.868649 -75.257492 0 341 14 0
2020-11-21 21:16:05 GMT 39.868511 -75.257431 0 347 13 0
2020-11-21 21:16:02 GMT 39.868511 -75.257431 0 346 16 0
2020-11-21 21:15:59 GMT 39.868290 -75.257393 0 347 13 0
2020-11-21 21:15:56 GMT 39.868130 -75.257332 0 347 15 0
2020-11-21 21:15:53 GMT 39.867741 -75.257202 0 344 15 0
2020-11-21 21:15:50 GMT 39.867741 -75.257202 0 343 13 0
2020-11-21 21:15:47 GMT 39.867561 -75.257133 0 344 13 0
2020-11-21 21:15:44 GMT 39.867378 -75.257080 0 341 14 0
2020-11-21 21:15:41 GMT 39.867180 -75.257011 0 342 14 0
2020-11-21 21:15:38 GMT 39.867001 -75.256943 0 345 16 0
2020-11-21 21:15:35 GMT 39.866791 -75.256859 0 345 14 0
2020-11-21 21:15:32 GMT 39.866440 -75.256752 0 348 12 0
2020-11-21 21:15:29 GMT 39.866440 -75.256752 0 344 11 0
2020-11-21 21:15:26 GMT 39.866280 -75.256721 0 339 11 0
2020-11-21 21:15:23 GMT 39.866131 -75.256638 0 343 9 0
2020-11-21 21:15:20 GMT 39.866009 -75.256599 0 330 9 0
2020-11-21 21:15:17 GMT 39.865799 -75.256432 0 309 7 0
2020-11-21 21:15:14 GMT 39.865730 -75.256371 0 321 5 0
2020-11-21 21:15:11 GMT 39.865730 -75.256371 0 303 6 0
2020-11-21 21:15:08 GMT 39.865681 -75.256302 0 293 6 0
2020-11-21 21:15:05 GMT 39.865639 -75.256203 0 286 8 0
2020-11-21 21:15:02 GMT 39.865601 -75.256073 0 284 7 0
2020-11-21 21:14:59 GMT 39.865551 -75.255821 0 283 7 0
2020-11-21 21:14:56 GMT 39.865551 -75.255821 0 282 7 0
2020-11-21 21:14:53 GMT 39.865540 -75.255692 0 289 9 0
2020-11-21 21:14:50 GMT 39.865509 -75.255531 0 291 11 0
2020-11-21 21:14:47 GMT 39.865452 -75.255341 0 284 11 0
2020-11-21 21:14:44 GMT 39.865398 -75.255119 0 285 13 0
2020-11-21 21:14:41 GMT 39.865341 -75.254913 0 278 14 0
2020-11-21 21:14:38 GMT 39.865318 -75.254646 0 281 12 0
2020-11-21 21:14:35 GMT 39.865292 -75.254440 0 281 13 0
2020-11-21 21:14:32 GMT 39.865269 -75.254242 0 275 17 0
2020-11-21 21:14:29 GMT 39.865238 -75.253952 0 276 12 0
2020-11-21 21:14:26 GMT 39.865238 -75.253670 0 261 20 0
2020-11-21 21:14:23 GMT 39.865299 -75.253258 0 262 31 0
2020-11-21 21:14:20 GMT 39.865349 -75.252731 0 258 37 0
2020-11-21 21:14:17 GMT 39.865452 -75.251999 -375 256 45 0
2020-11-21 21:14:14 GMT 39.865639 -75.251106 -375 255 60 32
2020-11-21 21:14:11 GMT 39.866100 -75.248672 -400 255 79 -64
2020-11-21 21:14:08 GMT 39.866100 -75.248672 -400 254 93 -32
2020-11-21 21:14:05 GMT 39.866470 -75.247093 -400 256 117 -640
2020-11-21 21:14:02 GMT 39.866829 -75.245171 -400 256 121 -640
2020-11-21 21:13:59 GMT 39.867249 -75.243019 -400 255 127 -640
2020-11-21 21:13:56 GMT 39.867668 -75.240807 -350 254 130 -640
2020-11-21 21:13:53 GMT 39.868149 -75.238564 -275 255 130 -640
2020-11-21 21:13:50 GMT 39.868599 -75.236313 -275 255 129 -640
2020-11-21 21:13:47 GMT 39.869030 -75.234062 -225 256 124 -640
2020-11-21 21:13:44 GMT 39.869492 -75.231819 -200 255 131 -640
2020-11-21 21:13:41 GMT 39.869919 -75.229553 -100 256 132 -640
2020-11-21 21:13:38 GMT 39.870369 -75.227379 -100 256 133 -640
2020-11-21 21:13:35 GMT 39.870861 -75.225121 -75 254 128 -640
2020-11-21 21:13:32 GMT 39.871288 -75.222847 -50 255 126 -640
2020-11-21 21:13:29 GMT 39.871769 -75.220642 -50 255 125 -640
2020-11-21 21:13:26 GMT 39.872639 -75.216133 100 257 128 -640
2020-11-21 21:13:23 GMT 39.872639 -75.216133 50 255 132 -640
2020-11-21 21:13:20 GMT 39.873020 -75.213943 125 254 133 -640
2020-11-21 21:13:17 GMT 39.873520 -75.211700 125 255 133 -640
2020-11-21 21:13:14 GMT 39.873932 -75.209373 200 254 128 -640
2020-11-21 21:13:11 GMT 39.874409 -75.207161 200 257 132 -640
2020-11-21 21:13:08 GMT 39.874802 -75.204819 300 253 124 -640
2020-11-21 21:13:05 GMT 39.875259 -75.202621 300 257 129 -640
2020-11-21 21:13:02 GMT 39.875690 -75.200302 300 256 126 -640
2020-11-21 21:12:59 GMT 39.876068 -75.198120 400 253 132 -544
2020-11-21 21:12:56 GMT 39.876591 -75.195869 400 253 133 -544
2020-11-21 21:12:53 GMT 39.877102 -75.193642 400 256 131 -544
2020-11-21 21:12:50 GMT 39.877541 -75.191277 400 256 137 -544
2020-11-21 21:12:47 GMT 39.877998 -75.188988 500 255 128 -544
2020-11-21 21:12:44 GMT 39.878399 -75.186783 500 255 133 -544
2020-11-21 21:12:41 GMT 39.878880 -75.184471 600 254 125 -544
2020-11-21 21:12:38 GMT 39.879768 -75.180023 650 255 125 -544
2020-11-21 21:12:35 GMT 39.879768 -75.180023 650 253 129 -544
2020-11-21 21:12:32 GMT 39.880680 -75.175522 700 255 126 -544
2020-11-21 21:12:29 GMT 39.880680 -75.175522 700 255 125 -544
2020-11-21 21:12:26 GMT 39.881088 -75.173317 800 255 125 -544
2020-11-21 21:12:23 GMT 39.881519 -75.171150 800 254 127 -544
2020-11-21 21:12:20 GMT 39.881969 -75.168922 800 255 125 -544
2020-11-21 21:12:17 GMT 39.882420 -75.166748 800 256 128 -544
2020-11-21 21:12:14 GMT 39.882839 -75.164436 900 255 124 -544
2020-11-21 21:12:11 GMT 39.883259 -75.162308 900 255 127 -544
2020-11-21 21:12:08 GMT 39.883701 -75.160057 1,000 255 127 -544
2020-11-21 21:12:05 GMT 39.884140 -75.157806 1,000 255 126 -544
2020-11-21 21:12:02 GMT 39.885052 -75.153427 1,000 255 128 -768
2020-11-21 21:11:59 GMT 39.885052 -75.153427 1,100 255 127 -768
2020-11-21 21:11:56 GMT 39.885479 -75.151192 1,100 255 127 -768
2020-11-21 21:11:53 GMT 39.885929 -75.148956 1,100 255 128 -768
2020-11-21 21:11:50 GMT 39.886349 -75.146767 1,200 255 129 -768
2020-11-21 21:11:47 GMT 39.886791 -75.144531 1,200 255 127 -768
2020-11-21 21:11:44 GMT 39.887680 -75.140099 1,300 255 128 -768
2020-11-21 21:11:41 GMT 39.887680 -75.140099 1,300 255 130 -768
2020-11-21 21:11:38 GMT 39.888111 -75.137848 1,300 255 129 -768
2020-11-21 21:11:35 GMT 39.888599 -75.135582 1,400 255 127 -768
2020-11-21 21:11:32 GMT 39.889011 -75.133377 1,400 255 127 -768
2020-11-21 21:11:29 GMT 39.889469 -75.131187 1,400 255 126 -768
2020-11-21 21:11:26 GMT 39.890362 -75.126640 1,500 255 128 -768
2020-11-21 21:11:23 GMT 39.890362 -75.126640 1,600 256 128 -768
2020-11-21 21:11:20 GMT 39.890789 -75.124443 1,600 255 130 -768
2020-11-21 21:11:17 GMT 39.891220 -75.122139 1,600 255 132 -768
2020-11-21 21:11:14 GMT 39.891689 -75.119881 1,600 255 126 -768
2020-11-21 21:11:11 GMT 39.892139 -75.117683 1,600 255 129 -768
2020-11-21 21:11:08 GMT 39.892570 -75.115479 1,700 254 129 -768
2020-11-21 21:11:05 GMT 39.893051 -75.113243 1,700 255 124 -768
2020-11-21 21:11:02 GMT 39.893490 -75.111053 1,700 256 128 -768
2020-11-21 21:10:59 GMT 39.893909 -75.108780 1,700 255 127 -768
2020-11-21 21:10:56 GMT 39.894329 -75.106590 1,800 255 128 -1216
2020-11-21 21:10:53 GMT 39.894791 -75.104332 1,800 255 126 -1216
2020-11-21 21:10:50 GMT 39.895222 -75.102089 1,900 254 126 -1216
2020-11-21 21:10:47 GMT 39.895679 -75.099892 1,900 255 126 -1216
2020-11-21 21:10:44 GMT 39.896160 -75.097733 2,000 257 129 -1216
2020-11-21 21:10:41 GMT 39.897491 -75.090836 1,950 256 129 -768
2020-11-21 21:10:34 GMT 39.897491 -75.090836 1,975 256 129 -768
2020-11-21 21:10:29 GMT 39.899364 -75.081360 2,100 256 129 -768
2020-11-21 21:10:22 GMT 39.899872 -75.078773 2,175 256 131 -768
2020-11-21 21:10:19 GMT 39.899872 -75.078773 2,175 256 131 -768
2020-11-21 21:10:14 GMT 39.900558 -75.075371 2,225 256 134 -768
2020-11-21 21:10:11 GMT 39.900948 -75.073364 2,250 256 136 -768
2020-11-21 21:10:06 GMT 39.901737 -75.069153 2,325 256 142 -768
2020-11-21 21:10:02 GMT 39.903168 -75.061874 2,425 256 148 -832
2020-11-21 21:09:54 GMT 39.903927 -75.058167 2,500 257 153 -768
2020-11-21 21:09:50 GMT 39.904438 -75.055298 2,600 256 155 -704
2020-11-21 21:09:43 GMT 39.905777 -75.048500 2,600 256 156 -384
2020-11-21 21:09:40 GMT 39.906300 -75.045837 2,600 256 156 -192
2020-11-21 21:09:35 GMT 39.907242 -75.041161 2,625 256 157 0
2020-11-21 21:09:31 GMT 39.908070 -75.036926 2,625 256 157 0
2020-11-21 21:09:27 GMT 39.909485 -75.029755 2,600 256 156 64
2020-11-21 21:09:23 GMT 39.909485 -75.029755 2,600 256 156 128
2020-11-21 21:09:20 GMT 39.909977 -75.027405 2,600 256 156 128
2020-11-21 21:09:13 GMT 39.911190 -75.021118 2,600 257 157 -128
2020-11-21 21:09:10 GMT 39.911911 -75.017334 2,625 256 157 -192
2020-11-21 21:09:04 GMT 39.912819 -75.012634 2,625 257 158 128
2020-11-21 21:09:01 GMT 39.913467 -75.009155 2,625 256 160 128
2020-11-21 21:08:55 GMT 39.914402 -75.004456 2,625 256 166 -448
2020-11-21 21:08:52 GMT 39.915192 -75.000488 2,675 256 169 -640
2020-11-21 21:08:49 GMT 39.916306 -74.994766 2,725 256 173 -640
2020-11-21 21:08:45 GMT 39.916306 -74.994766 2,725 260 178 -704
2020-11-21 21:08:42 GMT 39.917103 -74.990479 2,775 257 176 -640
2020-11-21 21:08:39 GMT 39.917679 -74.987419 2,800 257 177 -640
2020-11-21 21:08:32 GMT 39.918869 -74.980896 2,850 258 179 -640
2020-11-21 21:08:29 GMT 39.919289 -74.978394 2,875 258 180 -640
2020-11-21 21:08:26 GMT 39.919846 -74.974976 2,925 259 179 -576
2020-11-21 21:08:23 GMT 39.920334 -74.971779 2,950 259 179 -576
2020-11-21 21:08:20 GMT 39.921021 -74.967598 3,000 260 179 -640
2020-11-21 21:08:15 GMT 39.921616 -74.963303 3,050 261 179 -704
2020-11-21 21:08:11 GMT 39.922268 -74.957581 3,100 262 178 -704
2020-11-21 21:08:08 GMT 39.922577 -74.954895 3,125 262 178 -704
2020-11-21 21:08:03 GMT 39.923538 -74.946716 3,225 260 178 -704
2020-11-21 21:07:56 GMT 39.923992 -74.943550 3,250 260 178 -704
2020-11-21 21:07:50 GMT 39.925140 -74.935730 3,350 260 179 -768
2020-11-21 21:07:47 GMT 39.925507 -74.933228 3,375 260 179 -704
2020-11-21 21:07:42 GMT 39.926285 -74.928101 3,600 260 181 -832
2020-11-21 21:07:37 GMT 39.927204 -74.921951 3,500 260 180 -768
2020-11-21 21:07:29 GMT 39.928459 -74.913399 3,600 260 182 -768
2020-11-21 21:07:25 GMT 39.928894 -74.910278 3,625 260 181 -768
2020-11-21 21:07:21 GMT 39.929531 -74.906097 3,750 260 182 -768
2020-11-21 21:07:17 GMT 39.930275 -74.900917 3,750 260 182 -704
2020-11-21 21:07:12 GMT 39.931019 -74.895737 4,225 260 185 -896
2020-11-21 21:07:08 GMT 39.931625 -74.891487 3,850 260 184 -768
2020-11-21 21:07:05 GMT 39.932278 -74.887123 3,900 260 184 -768
2020-11-21 21:07:00 GMT 39.932831 -74.883484 3,975 260 184 -896
2020-11-21 21:06:57 GMT 39.933487 -74.878754 4,000 260 184 -896
2020-11-21 21:06:53 GMT 39.934139 -74.874451 4,075 260 185 -896
2020-11-21 21:06:50 GMT 39.934433 -74.872437 4,100 260 184 -896
2020-11-21 21:06:47 GMT 39.934883 -74.869141 4,150 260 185 -896
2020-11-21 21:06:44 GMT 39.935349 -74.865906 4,175 260 185 -896
2020-11-21 21:06:39 GMT 39.936188 -74.860031 4,275 260 185 -896
2020-11-21 21:06:35 GMT 39.936722 -74.856262 4,300 260 185 -896
2020-11-21 21:06:32 GMT 39.937363 -74.851868 4,375 260 185 -896
2020-11-21 21:06:29 GMT 39.937683 -74.849731 4,525 260 186 -960
2020-11-21 21:06:25 GMT 39.938461 -74.844360 4,525 260 186 -1216
2020-11-21 21:06:22 GMT 39.938793 -74.841988 4,525 260 186 -1216
2020-11-21 21:06:19 GMT 39.939354 -74.837929 4,600 260 186 -384
2020-11-21 21:06:16 GMT 39.939774 -74.834808 4,625 260 185 0
2020-11-21 21:06:13 GMT 39.940247 -74.831543 4,625 260 185 64
2020-11-21 21:06:09 GMT 39.940842 -74.827087 4,600 261 185 0
2020-11-21 21:06:04 GMT 39.941574 -74.821777 4,600 261 185 0
2020-11-21 21:06:00 GMT 39.942123 -74.817505 4,600 261 185 64
2020-11-21 21:05:56 GMT 39.942902 -74.811646 4,600 261 185 0
2020-11-21 21:05:53 GMT 39.943218 -74.809219 4,600 261 186 0
2020-11-21 21:05:50 GMT 39.943634 -74.805908 4,600 262 186 0
2020-11-21 21:05:47 GMT 39.944008 -74.802727 4,600 262 186 0
2020-11-21 21:05:43 GMT 39.944614 -74.797729 4,600 262 185 64
2020-11-21 21:05:38 GMT 39.945190 -74.792664 4,600 263 185 0
2020-11-21 21:05:34 GMT 39.945637 -74.787994 4,600 263 185 0
2020-11-21 21:05:30 GMT 39.946243 -74.781128 4,600 265 184 0
2020-11-21 21:05:24 GMT 39.946564 -74.777161 4,600 265 185 -128
2020-11-21 21:05:21 GMT 39.946754 -74.773949 4,625 265 185 -192
2020-11-21 21:05:16 GMT 39.947826 -74.764458 4,625 262 187 64
2020-11-21 21:05:13 GMT 39.947826 -74.764458 4,600 254 188 256
2020-11-21 21:05:07 GMT 39.950867 -74.755981 4,600 229 193 -64
2020-11-21 21:05:01 GMT 39.952606 -74.753113 4,600 230 192 -64
2020-11-21 21:04:57 GMT 39.957508 -74.745918 4,625 228 194 -64
2020-11-21 21:04:54 GMT 39.957508 -74.745918 4,600 228 194 0
2020-11-21 21:04:51 GMT 39.958672 -74.744232 4,600 228 194 64
2020-11-21 21:04:46 GMT 39.961761 -74.739929 4,625 226 193 -128
2020-11-21 21:04:41 GMT 39.965096 -74.735435 4,625 222 193 64
2020-11-21 21:04:36 GMT 39.971237 -74.729309 4,600 214 194 128
2020-11-21 21:04:32 GMT 39.971237 -74.729309 4,600 207 196 128
2020-11-21 21:04:29 GMT 39.973381 -74.728065 4,600 203 196 0
2020-11-21 21:04:26 GMT 39.980255 -74.725891 4,600 191 199 -64
2020-11-21 21:04:21 GMT 39.980255 -74.725891 4,600 191 199 -64
2020-11-21 21:04:15 GMT 39.986649 -74.724319 4,625 195 198 -64
2020-11-21 21:04:10 GMT 39.991306 -74.722702 4,625 197 197 128
2020-11-21 21:04:05 GMT 39.995171 -74.721268 4,600 195 197 128
2020-11-21 21:03:59 GMT 40.000397 -74.719971 4,600 185 199 -64
2020-11-21 21:03:55 GMT 40.007973 -74.719391 4,600 183 200 -128
2020-11-21 21:03:51 GMT 40.007973 -74.719391 4,625 183 201 -128
2020-11-21 21:03:48 GMT 40.010578 -74.719269 4,625 177 203 128
2020-11-21 21:03:43 GMT 40.015274 -74.719055 4,600 175 204 128
2020-11-21 21:03:40 GMT 40.018024 -74.719269 4,600 174 204 64
2020-11-21 21:03:37 GMT 40.021469 -74.719955 4,600 167 205 0
2020-11-21 21:03:31 GMT 40.027496 -74.721802 4,600 165 206 64
2020-11-21 21:03:28 GMT 40.029243 -74.722389 4,600 165 206 64
2020-11-21 21:03:24 GMT 40.032925 -74.723633 4,600 165 206 64
2020-11-21 21:03:20 GMT 40.037109 -74.724976 4,600 165 205 -64
2020-11-21 21:03:17 GMT 40.039207 -74.725693 4,600 165 205 -64
2020-11-21 21:03:11 GMT 40.044891 -74.727783 4,625 163 205 -128
2020-11-21 21:03:08 GMT 40.048553 -74.729370 4,625 157 206 64
2020-11-21 21:03:02 GMT 40.052399 -74.731628 4,625 149 207 0
2020-11-21 21:02:59 GMT 40.055466 -74.734497 4,625 139 207 -64
2020-11-21 21:02:56 GMT 40.056885 -74.736206 4,625 134 206 -64
2020-11-21 21:02:51 GMT 40.060410 -74.742615 4,625 116 205 0
2020-11-21 21:02:48 GMT 40.062103 -74.748596 4,625 112 204 64
2020-11-21 21:02:41 GMT 40.062622 -74.753227 4,600 92 201 0
2020-11-21 21:02:37 GMT 40.061832 -74.764214 4,600 81 198 64
2020-11-21 21:02:32 GMT 40.061832 -74.764214 4,600 81 198 64
2020-11-21 21:02:27 GMT 40.061180 -74.769829 4,600 81 198 0
2020-11-21 21:02:21 GMT 40.060089 -74.778625 4,600 80 199 0
2020-11-21 21:02:18 GMT 40.059814 -74.780945 4,600 80 199 -64
2020-11-21 21:02:11 GMT 40.058807 -74.788803 4,625 80 199 -64
2020-11-21 21:02:08 GMT 40.058247 -74.793610 4,625 80 199 0
2020-11-21 21:02:01 GMT 40.057362 -74.800606 4,625 80 198 0
2020-11-21 21:01:58 GMT 40.056839 -74.804749 4,625 80 198 0
2020-11-21 21:01:50 GMT 40.055557 -74.815125 4,625 80 198 0
2020-11-21 21:01:47 GMT 40.055126 -74.818581 4,625 80 198 -64
2020-11-21 21:01:40 GMT 40.054321 -74.825012 4,625 80 197 -64
2020-11-21 21:01:37 GMT 40.053871 -74.828506 4,625 80 197 64
2020-11-21 21:01:33 GMT 40.053173 -74.834122 4,600 80 197 64
2020-11-21 21:01:28 GMT 40.052383 -74.840302 4,600 80 196 0
2020-11-21 21:01:24 GMT 40.051777 -74.844986 4,600 80 196 -64
2020-11-21 21:01:18 GMT 40.050983 -74.851540 4,600 80 197 -64
2020-11-21 21:01:15 GMT 40.050472 -74.855286 4,625 80 198 -64
2020-11-21 21:01:10 GMT 40.049683 -74.861465 4,625 80 198 0
2020-11-21 21:01:07 GMT 40.047913 -74.875916 4,625 80 197 0
2020-11-21 21:00:58 GMT 40.047913 -74.875916 4,600 81 199 0
2020-11-21 21:00:54 GMT 40.047318 -74.880615 4,600 81 199 0
2020-11-21 21:00:49 GMT 40.046608 -74.886055 4,600 81 198 0
2020-11-21 21:00:42 GMT 40.045727 -74.893616 4,600 81 199 0
2020-11-21 21:00:39 GMT 40.045166 -74.897919 4,600 81 199 0
2020-11-21 21:00:36 GMT 40.044754 -74.901367 4,600 81 199 64
2020-11-21 21:00:32 GMT 40.044144 -74.906471 4,600 80 199 0
2020-11-21 21:00:28 GMT 40.043674 -74.910278 4,625 80 197 64
2020-11-21 21:00:25 GMT 40.043072 -74.914963 4,625 80 197 64
2020-11-21 21:00:22 GMT 40.042694 -74.918030 4,625 80 197 0
2020-11-21 21:00:19 GMT 40.041916 -74.924622 4,600 80 197 0
2020-11-21 21:00:12 GMT 40.041302 -74.929504 4,600 80 197 0
2020-11-21 21:00:07 GMT 40.040451 -74.936829 4,600 80 197 0
2020-11-21 21:00:02 GMT 40.039719 -74.942612 4,600 81 198 0
2020-11-21 20:59:59 GMT 40.039299 -74.945984 4,600 81 198 64
2020-11-21 20:59:56 GMT 40.038986 -74.948608 4,625 81 198 0
2020-11-21 20:59:52 GMT 40.038437 -74.953369 4,625 81 198 -64
2020-11-21 20:59:45 GMT 40.037437 -74.961525 4,625 81 198 0
2020-11-21 20:59:41 GMT 40.036972 -74.965401 4,625 81 198 64
2020-11-21 20:59:38 GMT 40.036415 -74.970139 4,600 81 198 64
2020-11-21 20:59:35 GMT 40.035965 -74.973633 4,600 81 198 0
2020-11-21 20:59:29 GMT 40.035233 -74.979370 4,600 80 198 0
2020-11-21 20:59:26 GMT 40.034500 -74.985535 4,600 80 198 64
2020-11-21 20:59:21 GMT 40.033951 -74.989746 4,600 80 198 64
2020-11-21 20:59:18 GMT 40.033585 -74.992615 4,600 80 198 0
2020-11-21 20:59:15 GMT 40.033108 -74.996605 4,600 80 198 -64
2020-11-21 20:59:12 GMT 40.032669 -75.000183 4,600 80 198 -64
2020-11-21 20:59:09 GMT 40.032028 -75.005249 4,600 80 198 -64
2020-11-21 20:59:05 GMT 40.031525 -75.009155 4,625 81 198 -64
2020-11-21 20:58:58 GMT 40.030609 -75.016785 4,600 81 198 64
2020-11-21 20:58:54 GMT 40.030060 -75.021423 4,600 81 198 64
2020-11-21 20:58:47 GMT 40.029144 -75.028931 4,600 81 198 64
2020-11-21 20:58:44 GMT 40.028545 -75.033997 4,600 81 198 -64
2020-11-21 20:58:40 GMT 40.027908 -75.039429 4,600 81 198 0
2020-11-21 20:58:36 GMT 40.027405 -75.043701 4,625 81 199 -64
2020-11-21 20:58:33 GMT 40.026962 -75.047234 4,625 81 199 -192
2020-11-21 20:58:29 GMT 40.026546 -75.050980 4,625 81 200 -320
2020-11-21 20:58:25 GMT 40.025940 -75.056091 4,675 81 203 -704
2020-11-21 20:58:22 GMT 40.025574 -75.059448 4,700 81 204 -704
2020-11-21 20:58:18 GMT 40.025055 -75.063591 4,750 81 206 -640
2020-11-21 20:58:14 GMT 40.024429 -75.069214 4,800 81 210 -640
2020-11-21 20:58:11 GMT 40.023937 -75.073074 4,825 81 216 -704
2020-11-21 20:58:06 GMT 40.023285 -75.078918 4,875 81 216 -704
2020-11-21 20:58:02 GMT 40.022587 -75.084877 4,950 81 220 -704
2020-11-21 20:57:57 GMT 40.021797 -75.091805 4,975 81 225 -768
2020-11-21 20:57:53 GMT 40.021317 -75.096436 5,025 81 228 -768
2020-11-21 20:57:49 GMT 40.020538 -75.103287 5,075 82 233 -768
2020-11-21 20:57:46 GMT 40.020264 -75.106201 5,100 82 236 -704
2020-11-21 20:57:43 GMT 40.019806 -75.110352 5,150 82 237 -896
2020-11-21 20:57:39 GMT 40.018955 -75.117897 5,225 81 238 -1024
2020-11-21 20:57:36 GMT 40.018631 -75.120766 5,275 81 238 -1088
2020-11-21 20:57:32 GMT 40.018074 -75.125389 5,325 81 238 -960
2020-11-21 20:57:28 GMT 40.017151 -75.133118 5,400 80 240 -768
2020-11-21 20:57:25 GMT 40.016876 -75.135315 5,425 80 241 -768
2020-11-21 20:57:21 GMT 40.016098 -75.141724 5,475 80 242 -1024
2020-11-21 20:57:16 GMT 40.015045 -75.149979 5,575 80 242 -832
2020-11-21 20:57:13 GMT 40.014450 -75.154968 5,600 80 242 -256
2020-11-21 20:57:10 GMT 40.013901 -75.159058 5,600 80 242 -64
2020-11-21 20:57:05 GMT 40.013168 -75.164795 5,625 80 242 64
2020-11-21 20:57:02 GMT 40.012390 -75.171082 5,625 80 242 0
2020-11-21 20:56:57 GMT 40.011475 -75.177979 5,600 80 242 64
2020-11-21 20:56:54 GMT 40.011230 -75.180069 5,600 80 242 0
2020-11-21 20:56:51 GMT 40.010559 -75.184937 5,600 80 242 0
2020-11-21 20:56:44 GMT 40.009319 -75.194923 5,600 80 242 64
2020-11-21 20:56:39 GMT 40.008389 -75.202415 5,600 80 242 0
2020-11-21 20:56:36 GMT 40.007904 -75.206177 5,600 80 242 -64
2020-11-21 20:56:33 GMT 40.007401 -75.210205 5,600 80 242 -64
2020-11-21 20:56:30 GMT 40.006714 -75.215454 5,600 80 242 0
2020-11-21 20:56:26 GMT 40.006016 -75.220955 5,600 80 242 0
2020-11-21 20:56:20 GMT 40.004974 -75.229309 5,625 80 242 -64
2020-11-21 20:56:17 GMT 40.004478 -75.233498 5,625 80 243 64
2020-11-21 20:56:14 GMT 40.003830 -75.238525 5,600 80 243 64
2020-11-21 20:56:08 GMT 40.002594 -75.248352 5,600 80 243 0
2020-11-21 20:56:05 GMT 40.002106 -75.252106 5,600 80 243 0
2020-11-21 20:56:02 GMT 40.001686 -75.255539 5,600 80 243 0
2020-11-21 20:55:59 GMT 40.001266 -75.259033 5,600 80 243 -64
2020-11-21 20:55:55 GMT 40.000305 -75.266846 5,600 80 243 64
2020-11-21 20:55:52 GMT 39.999683 -75.271767 5,600 80 244 -64
2020-11-21 20:55:48 GMT 39.999268 -75.275139 5,600 80 244 -64
2020-11-21 20:55:43 GMT 39.998245 -75.283081 5,625 80 244 -64
2020-11-21 20:55:40 GMT 39.997467 -75.289307 5,625 80 243 64
2020-11-21 20:55:32 GMT 39.996048 -75.300415 5,600 80 243 64
2020-11-21 20:55:28 GMT 39.995495 -75.304787 5,600 80 243 0
2020-11-21 20:55:25 GMT 39.994701 -75.311089 5,600 80 242 64
2020-11-21 20:55:21 GMT 39.994190 -75.315086 5,600 80 242 0
2020-11-21 20:55:18 GMT 39.993668 -75.319397 5,600 80 243 0
2020-11-21 20:55:15 GMT 39.992569 -75.328003 5,600 80 243 -64
2020-11-21 20:55:09 GMT 39.991863 -75.333626 5,625 80 243 -64
2020-11-21 20:55:04 GMT 39.991196 -75.339172 5,625 80 243 -64
2020-11-21 20:55:01 GMT 39.990555 -75.344421 5,625 80 243 0
2020-11-21 20:54:57 GMT 39.989914 -75.349487 5,625 81 242 64
2020-11-21 20:54:53 GMT 39.989162 -75.355721 5,600 81 242 0
2020-11-21 20:54:50 GMT 39.988678 -75.359497 5,600 80 243 0
2020-11-21 20:54:41 GMT 39.987030 -75.372742 5,600 80 243 0
2020-11-21 20:54:38 GMT 39.986370 -75.378258 5,600 80 243 0
2020-11-21 20:54:33 GMT 39.984833 -75.390434 5,625 80 243 -64
2020-11-21 20:54:30 GMT 39.984833 -75.390434 5,600 80 243 0
2020-11-21 20:54:26 GMT 39.984413 -75.393799 5,600 80 243 64
2020-11-21 20:54:23 GMT 39.983765 -75.398979 5,600 80 243 0
2020-11-21 20:54:20 GMT 39.983345 -75.402542 5,600 80 243 0
2020-11-21 20:54:17 GMT 39.982635 -75.408081 5,600 80 243 0
2020-11-21 20:54:11 GMT 39.981529 -75.417023 5,600 80 243 0
2020-11-21 20:54:06 GMT 39.980740 -75.423454 5,600 80 243 0
2020-11-21 20:54:02 GMT 39.979889 -75.430054 5,600 80 243 0
2020-11-21 20:53:59 GMT 39.979248 -75.434998 5,600 80 243 0
2020-11-21 20:53:56 GMT 39.978836 -75.438110 5,600 80 243 -64
2020-11-21 20:53:50 GMT 39.977737 -75.446899 5,600 80 243 0
2020-11-21 20:53:46 GMT 39.976967 -75.452980 5,600 80 243 64
2020-11-21 20:53:43 GMT 39.976315 -75.458099 5,600 80 243 64
2020-11-21 20:53:39 GMT 39.975849 -75.461655 5,600 80 243 0
2020-11-21 20:53:35 GMT 39.975037 -75.468262 5,600 80 243 0
2020-11-21 20:53:32 GMT 39.974499 -75.472641 5,600 81 242 -64
2020-11-21 20:53:29 GMT 39.974030 -75.476379 5,600 81 242 -64
2020-11-21 20:53:24 GMT 39.973206 -75.483276 5,600 81 242 -64
2020-11-21 20:53:21 GMT 39.972404 -75.489929 5,625 81 242 0
2020-11-21 20:53:16 GMT 39.971786 -75.494934 5,625 81 242 0
2020-11-21 20:53:10 GMT 39.970642 -75.504211 5,600 81 242 64
2020-11-21 20:53:07 GMT 39.969936 -75.510284 5,600 81 242 0
2020-11-21 20:53:02 GMT 39.969177 -75.516785 5,625 81 241 -64
2020-11-21 20:52:58 GMT 39.968491 -75.522522 5,625 81 241 0
2020-11-21 20:52:51 GMT 39.967392 -75.531860 5,625 81 241 -64
2020-11-21 20:52:48 GMT 39.966843 -75.536316 5,625 81 241 -256
2020-11-21 20:52:44 GMT 39.966122 -75.542557 5,650 81 241 -768
2020-11-21 20:52:40 GMT 39.965378 -75.548462 5,750 80 242 -1152
2020-11-21 20:52:35 GMT 39.964600 -75.554932 5,825 80 242 -1088
2020-11-21 20:52:29 GMT 39.963467 -75.563782 5,925 80 243 -1088
2020-11-21 20:52:25 GMT 39.962723 -75.569336 6,000 80 243 -960
2020-11-21 20:52:21 GMT 39.961899 -75.575745 6,075 80 244 -960
2020-11-21 20:52:18 GMT 39.961487 -75.578552 6,100 79 244 -960
2020-11-21 20:52:13 GMT 39.960205 -75.587952 6,200 79 245 -1088
2020-11-21 20:52:08 GMT 39.959511 -75.592926 6,275 79 245 -1088
2020-11-21 20:52:05 GMT 39.958530 -75.599922 6,350 79 247 -1088
2020-11-21 20:52:01 GMT 39.958054 -75.603149 6,400 79 247 -1024
2020-11-21 20:51:58 GMT 39.957321 -75.608398 6,450 79 248 -960
2020-11-21 20:51:54 GMT 39.956131 -75.616577 6,525 79 249 -960
2020-11-21 20:51:51 GMT 39.955925 -75.618088 6,550 79 249 -960
2020-11-21 20:51:47 GMT 39.955124 -75.623779 6,600 79 250 -960
2020-11-21 20:51:42 GMT 39.952900 -75.638870 6,750 79 254 -960
2020-11-21 20:51:37 GMT 39.952900 -75.638870 6,750 79 254 -960
2020-11-21 20:51:34 GMT 39.952061 -75.644989 6,825 79 255 -1088
2020-11-21 20:51:31 GMT 39.951553 -75.648987 6,875 80 255 -1152
2020-11-21 20:51:28 GMT 39.950851 -75.654602 6,950 81 255 -1280
2020-11-21 20:51:23 GMT 39.950062 -75.663216 7,075 85 255 -1088
2020-11-21 20:51:17 GMT 39.950043 -75.670288 7,150 95 256 -1024
2020-11-21 20:51:12 GMT 39.950912 -75.677734 7,225 102 257 -832
2020-11-21 20:51:07 GMT 39.952240 -75.685608 7,300 102 258 -768
2020-11-21 20:51:00 GMT 39.954250 -75.696922 7,350 103 260 -768
2020-11-21 20:50:57 GMT 39.955040 -75.701233 7,400 102 262 -832
2020-11-21 20:50:51 GMT 39.956669 -75.710411 7,925 103 264 -960
2020-11-21 20:50:47 GMT 39.959061 -75.723938 7,600 102 266 -960
2020-11-21 20:50:42 GMT 39.959061 -75.723938 7,700 102 267 -1024
2020-11-21 20:50:36 GMT 39.960709 -75.733398 7,725 102 268 -1024
2020-11-21 20:50:32 GMT 39.961884 -75.739929 7,850 103 270 -1088
2020-11-21 20:50:29 GMT 39.963558 -75.749542 7,925 103 270 -1152
2020-11-21 20:50:20 GMT 39.965195 -75.758667 8,025 102 271 -1152
2020-11-21 20:50:16 GMT 39.967983 -75.774452 8,175 102 271 -1344
2020-11-21 20:50:11 GMT 39.967983 -75.774452 8,250 102 271 -1344
2020-11-21 20:50:08 GMT 39.968811 -75.779236 8,325 102 271 -1344
2020-11-21 20:50:03 GMT 39.970184 -75.786865 8,425 102 273 -832
2020-11-21 20:49:57 GMT 39.971706 -75.795555 8,525 102 273 -832
2020-11-21 20:49:53 GMT 39.972683 -75.801170 8,600 102 276 -192
2020-11-21 20:49:50 GMT 39.973846 -75.807785 8,600 102 277 64
2020-11-21 20:49:47 GMT 39.974545 -75.811722 8,600 102 277 0
2020-11-21 20:49:41 GMT 39.976318 -75.821655 8,600 102 277 -64
2020-11-21 20:49:38 GMT 39.977051 -75.825684 8,600 102 277 0
2020-11-21 20:49:35 GMT 39.978363 -75.833130 8,600 102 277 0
2020-11-21 20:49:32 GMT 39.979156 -75.837685 8,600 102 277 0
2020-11-21 20:49:27 GMT 39.980484 -75.845154 8,600 102 277 0
2020-11-21 20:49:23 GMT 39.981628 -75.851685 8,600 102 277 -64
2020-11-21 20:49:18 GMT 39.983158 -75.860474 8,600 102 278 -64
2020-11-21 20:49:15 GMT 39.984882 -75.870270 8,600 102 278 0
2020-11-21 20:49:06 GMT 39.986298 -75.878418 8,600 102 277 64
2020-11-21 20:49:01 GMT 39.987625 -75.885941 8,600 102 277 64
2020-11-21 20:48:58 GMT 39.989491 -75.896240 8,600 102 277 64
2020-11-21 20:48:55 GMT 39.989491 -75.896240 8,600 102 277 0
2020-11-21 20:48:52 GMT 39.990608 -75.902794 8,600 102 276 -64
2020-11-21 20:48:48 GMT 39.991837 -75.909729 8,600 102 276 -64
2020-11-21 20:48:45 GMT 39.992237 -75.911972 8,600 102 276 -64
2020-11-21 20:48:41 GMT 39.993301 -75.917969 8,600 102 276 -64
2020-11-21 20:48:37 GMT 39.994656 -75.925575 8,600 102 275 0
2020-11-21 20:48:33 GMT 39.995869 -75.932693 8,600 102 276 -64
2020-11-21 20:48:26 GMT 39.997589 -75.942497 8,600 102 276 0
2020-11-21 20:48:23 GMT 39.998615 -75.948364 8,600 102 276 64
2020-11-21 20:48:17 GMT 40.001633 -75.965515 8,600 102 277 0
2020-11-21 20:48:13 GMT 40.001633 -75.965515 8,600 102 276 -64
2020-11-21 20:48:06 GMT 40.003326 -75.975342 8,600 102 275 0
2020-11-21 20:48:02 GMT 40.004562 -75.982483 8,600 102 275 -64
2020-11-21 20:47:59 GMT 40.005222 -75.986069 8,600 102 275 0
2020-11-21 20:47:53 GMT 40.008251 -76.003418 8,600 102 274 0
2020-11-21 20:47:50 GMT 40.008251 -76.003418 8,600 102 274 -64
2020-11-21 20:47:46 GMT 40.009415 -76.009972 8,600 102 274 0
2020-11-21 20:47:42 GMT 40.011089 -76.019585 8,600 102 273 0
2020-11-21 20:47:34 GMT 40.012299 -76.026489 8,600 102 273 0
2020-11-21 20:47:31 GMT 40.013306 -76.032288 8,600 102 274 64
2020-11-21 20:47:25 GMT 40.015228 -76.043152 8,600 102 274 -64
2020-11-21 20:47:19 GMT 40.016861 -76.052605 8,600 102 275 0
2020-11-21 20:47:14 GMT 40.019238 -76.066216 8,600 102 271 -64
2020-11-21 20:47:11 GMT 40.019238 -76.066216 8,600 102 273 0
2020-11-21 20:47:06 GMT 40.020676 -76.074219 8,600 102 273 64
2020-11-21 20:47:03 GMT 40.021225 -76.077454 8,600 102 272 64
2020-11-21 20:47:00 GMT 40.022076 -76.082260 8,600 102 271 0
2020-11-21 20:46:57 GMT 40.022919 -76.087036 8,600 102 271 -64
2020-11-21 20:46:53 GMT 40.025024 -76.099060 8,650 102 273 -640
2020-11-21 20:46:50 GMT 40.025024 -76.099060 8,625 102 271 -128
2020-11-21 20:46:47 GMT 40.025894 -76.104042 8,625 102 289 -512
2020-11-21 20:46:43 GMT 40.026871 -76.109787 8,650 102 274 -704
2020-11-21 20:46:39 GMT 40.028034 -76.116280 8,700 102 276 -576
2020-11-21 20:46:36 GMT 40.028687 -76.120209 8,725 102 278 -448
2020-11-21 20:46:33 GMT 40.029942 -76.127449 8,750 102 281 -384
2020-11-21 20:46:27 GMT 40.031616 -76.137146 8,775 102 287 -512
2020-11-21 20:46:22 GMT 40.032875 -76.144241 8,825 102 290 -448
2020-11-21 20:46:19 GMT 40.034729 -76.154907 8,850 102 296 -320
2020-11-21 20:46:16 GMT 40.036011 -76.162415 8,850 102 298 -320
2020-11-21 20:46:11 GMT 40.036011 -76.162415 8,875 102 299 -256
2020-11-21 20:46:08 GMT 40.037067 -76.168587 8,875 102 303 -320
2020-11-21 20:46:04 GMT 40.038574 -76.177429 8,900 102 307 -384
2020-11-21 20:45:57 GMT 40.040371 -76.188004 8,950 102 311 -512
2020-11-21 20:45:52 GMT 40.042282 -76.199585 9,000 102 316 -640
2020-11-21 20:45:47 GMT 40.043610 -76.206970 9,050 104 317 -640
2020-11-21 20:45:42 GMT 40.045624 -76.215881 9,100 108 319 -640
2020-11-21 20:45:39 GMT 40.048985 -76.226013 9,175 117 319 -576
2020-11-21 20:45:33 GMT 40.052490 -76.233582 9,225 125 317 -768
2020-11-21 20:45:27 GMT 40.057663 -76.241943 9,275 132 314 -640
2020-11-21 20:45:23 GMT 40.060501 -76.245667 9,300 136 311 -576
2020-11-21 20:45:20 GMT 40.064987 -76.250610 9,325 142 309 -448
2020-11-21 20:45:14 GMT 40.071991 -76.256592 9,400 151 304 -576
2020-11-21 20:45:09 GMT 40.077427 -76.259972 9,425 156 301 -704
2020-11-21 20:45:05 GMT 40.082336 -76.262329 9,475 163 294 -896
2020-11-21 20:45:02 GMT 40.088104 -76.264160 9,550 170 288 -640
2020-11-21 20:44:59 GMT 40.090164 -76.264648 9,600 175 285 -512
2020-11-21 20:44:56 GMT 40.095520 -76.265442 9,600 177 283 -448
2020-11-21 20:44:49 GMT 40.103588 -76.265404 9,600 186 277 256
2020-11-21 20:44:43 GMT 40.112503 -76.263916 9,575 192 275 320
2020-11-21 20:44:38 GMT 40.117229 -76.262405 9,575 218 282 0
2020-11-21 20:44:35 GMT 40.121750 -76.260376 9,575 202 280 -576
2020-11-21 20:44:32 GMT 40.124863 -76.258659 9,600 205 282 -320
2020-11-21 20:44:28 GMT 40.128891 -76.255981 9,600 210 284 -256
2020-11-21 20:44:22 GMT 40.140087 -76.245300 9,600 238 272 -192
2020-11-21 20:44:18 GMT 40.140087 -76.245300 9,600 226 277 192
2020-11-21 20:44:15 GMT 40.142879 -76.241371 9,600 232 275 0
2020-11-21 20:44:11 GMT 40.145626 -76.236626 9,600 236 273 -192
2020-11-21 20:44:07 GMT 40.148697 -76.230576 9,600 239 271 64
2020-11-21 20:44:04 GMT 40.151073 -76.225517 9,600 239 272 64
2020-11-21 20:43:58 GMT 40.154751 -76.217712 9,600 239 272 0
2020-11-21 20:43:51 GMT 40.159496 -76.207603 9,625 239 273 128
2020-11-21 20:43:47 GMT 40.161919 -76.202545 9,600 239 273 0
2020-11-21 20:43:44 GMT 40.163502 -76.199173 9,600 239 273 -64
2020-11-21 20:43:40 GMT 40.166435 -76.192993 9,600 239 274 64
2020-11-21 20:43:36 GMT 40.169086 -76.187317 9,600 239 273 64
2020-11-21 20:43:33 GMT 40.171463 -76.182259 9,600 239 273 0
2020-11-21 20:43:30 GMT 40.173431 -76.178040 9,600 239 272 0
2020-11-21 20:43:27 GMT 40.175697 -76.173271 9,600 239 272 0
2020-11-21 20:43:22 GMT 40.178352 -76.167717 9,600 239 271 -64
2020-11-21 20:43:18 GMT 40.180847 -76.162415 9,600 239 273 0
2020-11-21 20:43:15 GMT 40.182869 -76.158226 9,600 239 272 -64
2020-11-21 20:43:12 GMT 40.185520 -76.152611 9,600 239 273 64
2020-11-21 20:43:06 GMT 40.189362 -76.144470 9,600 239 273 64
2020-11-21 20:42:59 GMT 40.194275 -76.134071 9,625 239 272 128
2020-11-21 20:42:56 GMT 40.197113 -76.127953 9,600 239 272 64
2020-11-21 20:42:50 GMT 40.199253 -76.123390 9,600 239 272 -192
2020-11-21 20:42:47 GMT 40.203491 -76.114403 9,600 239 272 -64
2020-11-21 20:42:41 GMT 40.205704 -76.109619 9,600 239 272 64
2020-11-21 20:42:38 GMT 40.207680 -76.105415 9,600 239 272 -64
2020-11-21 20:42:34 GMT 40.210693 -76.099060 9,600 239 272 0
2020-11-21 20:42:29 GMT 40.212891 -76.094421 9,600 239 272 64
2020-11-21 20:42:26 GMT 40.216003 -76.087708 9,600 239 271 -64
2020-11-21 20:42:23 GMT 40.217644 -76.084190 9,600 239 271 -64
2020-11-21 20:42:19 GMT 40.220215 -76.078735 9,600 239 279 -64
2020-11-21 20:42:16 GMT 40.221771 -76.075378 9,600 239 271 0
2020-11-21 20:42:13 GMT 40.223557 -76.071594 9,600 239 271 -64
2020-11-21 20:42:07 GMT 40.228165 -76.061661 9,625 239 302 -960
2020-11-21 20:42:04 GMT 40.229977 -76.057724 9,600 239 272 -64
2020-11-21 20:41:56 GMT 40.237194 -76.042496 9,600 239 279 -64
2020-11-21 20:41:48 GMT 40.240860 -76.034729 9,600 239 291 64
2020-11-21 20:41:45 GMT 40.242599 -76.031067 9,600 239 296 -128
2020-11-21 20:41:42 GMT 40.249786 -76.015747 11,225 239 298 -256
2020-11-21 20:41:35 GMT 40.252075 -76.010742 14,150 239 343 -5824
2020-11-21 20:41:25 GMT 40.257431 -75.999207 9,825 239 285 -2048
2020-11-21 20:41:22 GMT 40.259125 -75.995667 9,900 239 285 -1984
2020-11-21 20:41:14 GMT 40.266800 -75.979195 13,950 239 294 -3456
2020-11-21 20:41:05 GMT 40.273876 -75.963905 10,900 239 300 -5248
2020-11-21 20:41:02 GMT 40.278721 -75.953415 11,225 239 297 -4416
2020-11-21 20:40:54 GMT 40.278721 -75.953415 12,425 239 298 -5056
2020-11-21 20:40:48 GMT 40.283096 -75.944176 11,875 239 299 -5184
2020-11-21 20:40:43 GMT 40.290356 -75.928635 14,150 239 343 -5824
2020-11-21 20:40:38 GMT 40.290356 -75.928635 15,350 239 323 -5056
2020-11-21 20:40:33 GMT 40.294281 -75.920288 13,350 239 306 -4864
2020-11-21 20:40:29 GMT 40.297623 -75.913086 13,700 239 309 -4800
2020-11-21 20:40:23 GMT 40.301514 -75.904785 14,475 239 316 -4864
2020-11-21 20:40:18 GMT 40.305176 -75.896973 14,525 239 316 -4864
2020-11-21 20:40:13 GMT 40.309479 -75.887817 14,950 239 319 -4928
2020-11-21 20:40:08 GMT 40.313026 -75.880196 15,350 239 324 -5120
2020-11-21 20:40:02 GMT 40.318451 -75.868469 15,950 239 326 -5120
2020-11-21 20:39:58 GMT 40.321453 -75.862030 16,250 239 329 -5120
2020-11-21 20:39:51 GMT 40.325924 -75.852417 16,800 239 343 -5824
2020-11-21 20:39:47 GMT 40.329300 -75.845215 17,125 239 335 -5376
2020-11-21 20:39:42 GMT 40.333977 -75.835190 17,700 239 343 -5824
2020-11-21 20:39:38 GMT 40.336582 -75.829575 18,725 239 338 -5504
2020-11-21 20:39:35 GMT 40.339325 -75.823730 18,075 239 340 -5568
2020-11-21 20:39:32 GMT 40.341843 -75.818398 18,725 239 341 -5568
2020-11-21 20:39:29 GMT 40.345100 -75.811409 19,325 239 342 -5696
2020-11-21 20:39:26 GMT 40.346779 -75.807785 21,275 239 343 -6016
2020-11-21 20:39:22 GMT 40.350906 -75.798889 19,525 239 343 -6080
2020-11-21 20:39:19 GMT 40.352554 -75.795349 19,900 239 343 -6272
2020-11-21 20:39:16 GMT 40.355717 -75.788620 21,350 239 347 -4928
2020-11-21 20:39:10 GMT 40.362373 -75.774391 20,900 239 345 -5504
2020-11-21 20:39:07 GMT 40.362373 -75.774391 21,000 239 347 -4928
2020-11-21 20:39:02 GMT 40.367157 -75.764099 24,525 239 352 -3648
2020-11-21 20:38:58 GMT 40.369583 -75.758850 24,525 239 348 -1920
2020-11-21 20:38:55 GMT 40.372101 -75.753418 22,300 239 351 -4160
2020-11-21 20:38:50 GMT 40.377224 -75.742432 22,200 239 350 -3584
2020-11-21 20:38:46 GMT 40.379875 -75.736809 22,375 239 351 -3008
2020-11-21 20:38:43 GMT 40.382858 -75.730469 22,475 239 352 -2048
2020-11-21 20:38:40 GMT 40.385368 -75.724953 22,625 239 351 -1984
2020-11-21 20:38:37 GMT 40.387894 -75.719543 22,725 239 348 -1856
2020-11-21 20:38:34 GMT 40.390915 -75.713074 22,825 239 343 -1856
2020-11-21 20:38:31 GMT 40.393658 -75.707039 22,975 239 336 -1856
2020-11-21 20:38:28 GMT 40.394806 -75.704590 22,975 239 336 -1856
2020-11-21 20:38:25 GMT 40.398079 -75.697487 23,100 239 329 -1920
2020-11-21 20:38:22 GMT 40.399986 -75.693367 23,225 239 328 -1920
2020-11-21 20:38:19 GMT 40.403046 -75.686768 23,300 239 329 -1920
2020-11-21 20:38:16 GMT 40.404556 -75.683472 23,775 239 332 -1920
2020-11-21 20:38:13 GMT 40.407017 -75.678200 23,450 239 333 -1920
2020-11-21 20:38:09 GMT 40.410183 -75.671272 23,600 239 334 -1920
2020-11-21 20:38:06 GMT 40.413021 -75.665215 23,700 239 336 -1920
2020-11-21 20:38:03 GMT 40.414700 -75.661591 23,775 239 340 -1920
2020-11-21 20:38:00 GMT 40.417629 -75.655289 23,950 239 338 -1920
2020-11-21 20:37:56 GMT 40.421539 -75.646858 24,000 239 338 -1920
2020-11-21 20:37:53 GMT 40.423691 -75.642334 24,225 239 340 -1920
2020-11-21 20:37:48 GMT 40.427307 -75.634521 24,275 239 344 -1920
2020-11-21 20:37:45 GMT 40.432110 -75.624138 24,450 239 347 -1920
2020-11-21 20:37:42 GMT 40.432110 -75.624138 24,500 239 347 -1920
2020-11-21 20:37:39 GMT 40.434311 -75.619507 24,525 239 349 -1920
2020-11-21 20:37:35 GMT 40.440861 -75.605286 24,750 239 353 -1920
2020-11-21 20:37:29 GMT 40.444260 -75.597923 24,950 239 356 -64
2020-11-21 20:37:25 GMT 40.447285 -75.591370 25,000 239 356 -1408
2020-11-21 20:37:22 GMT 40.450031 -75.585373 25,000 239 355 -320
2020-11-21 20:37:19 GMT 40.451889 -75.581360 25,000 239 355 -64
2020-11-21 20:37:15 GMT 40.456329 -75.571777 25,000 239 355 0
2020-11-21 20:37:12 GMT 40.457851 -75.568459 25,000 239 355 0
2020-11-21 20:37:09 GMT 40.460403 -75.562927 25,000 239 355 0
2020-11-21 20:37:04 GMT 40.465347 -75.552231 25,000 239 356 0
2020-11-21 20:37:01 GMT 40.467224 -75.548157 25,000 239 356 64
2020-11-21 20:36:58 GMT 40.469444 -75.543365 25,000 239 355 64
2020-11-21 20:36:55 GMT 40.472515 -75.536751 25,000 239 356 64
2020-11-21 20:36:52 GMT 40.474319 -75.532837 25,000 239 356 64
2020-11-21 20:36:49 GMT 40.478165 -75.524536 25,000 239 356 64
2020-11-21 20:36:45 GMT 40.480591 -75.519287 25,000 239 356 64
2020-11-21 20:36:42 GMT 40.483292 -75.513367 25,000 239 356 0
2020-11-21 20:36:39 GMT 40.486038 -75.507446 25,000 239 356 0
2020-11-21 20:36:36 GMT 40.488853 -75.501289 25,000 239 356 0
2020-11-21 20:36:33 GMT 40.490952 -75.496796 25,000 239 356 0
2020-11-21 20:36:30 GMT 40.493500 -75.491211 25,000 239 354 -64
2020-11-21 20:36:26 GMT 40.496769 -75.484192 25,000 239 356 0
2020-11-21 20:36:23 GMT 40.500000 -75.477173 25,000 239 355 -64
2020-11-21 20:36:17 GMT 40.504074 -75.468323 25,000 239 354 -64
2020-11-21 20:36:14 GMT 40.506592 -75.462776 25,000 240 353 0
2020-11-21 20:36:11 GMT 40.509617 -75.456223 25,000 240 353 0
2020-11-21 20:36:08 GMT 40.512863 -75.449158 25,000 239 353 0
2020-11-21 20:36:05 GMT 40.515297 -75.443802 25,000 239 354 0
2020-11-21 20:36:00 GMT 40.519592 -75.434570 25,000 239 358 0
2020-11-21 20:35:57 GMT 40.521210 -75.431068 25,000 239 359 0
2020-11-21 20:35:53 GMT 40.524765 -75.423340 25,000 239 366 64
2020-11-21 20:35:50 GMT 40.527447 -75.417519 25,000 239 366 64
2020-11-21 20:35:47 GMT 40.529755 -75.412598 25,000 239 371 0
2020-11-21 20:35:44 GMT 40.533501 -75.404411 25,000 239 373 192
2020-11-21 20:35:40 GMT 40.536163 -75.398621 24,975 240 373 384
2020-11-21 20:35:37 GMT 40.539177 -75.391991 24,950 240 373 640
2020-11-21 20:35:33 GMT 40.542671 -75.384377 24,925 239 372 640
2020-11-21 20:35:30 GMT 40.545731 -75.377686 24,850 240 370 768
2020-11-21 20:35:27 GMT 40.548767 -75.371140 24,825 240 370 832
2020-11-21 20:35:23 GMT 40.552460 -75.363037 24,750 239 370 896
2020-11-21 20:35:19 GMT 40.555099 -75.357285 24,250 239 368 960
2020-11-21 20:35:16 GMT 40.557358 -75.352295 24,675 239 370 896
2020-11-21 20:35:13 GMT 40.560837 -75.344727 24,625 239 369 896
2020-11-21 20:35:09 GMT 40.564270 -75.337311 24,550 239 368 960
2020-11-21 20:35:06 GMT 40.566513 -75.332458 24,525 239 368 960
2020-11-21 20:35:02 GMT 40.569904 -75.325012 24,475 239 368 960
2020-11-21 20:34:59 GMT 40.572556 -75.319275 24,100 239 367 960
2020-11-21 20:34:56 GMT 40.578327 -75.306664 24,350 240 367 896
2020-11-21 20:34:52 GMT 40.578327 -75.306664 24,300 240 367 896
2020-11-21 20:34:49 GMT 40.581940 -75.298706 24,250 240 365 768
2020-11-21 20:34:43 GMT 40.586792 -75.288025 24,175 240 365 768
2020-11-21 20:34:40 GMT 40.589455 -75.282249 24,150 240 365 768
2020-11-21 20:34:36 GMT 40.592945 -75.274635 24,075 239 364 832
2020-11-21 20:34:33 GMT 40.595737 -75.268585 24,050 240 363 768
2020-11-21 20:34:30 GMT 40.598328 -75.262878 24,025 239 362 768
2020-11-21 20:34:27 GMT 40.601326 -75.256409 24,000 239 362 832
2020-11-21 20:34:24 GMT 40.602722 -75.253349 23,950 240 361 832
2020-11-21 20:34:21 GMT 40.605972 -75.246155 23,925 240 361 832
2020-11-21 20:34:18 GMT 40.608719 -75.240173 23,850 240 360 896
2020-11-21 20:34:15 GMT 40.610962 -75.235313 23,800 240 360 1024
2020-11-21 20:34:11 GMT 40.614639 -75.227135 23,725 240 359 1152
2020-11-21 20:34:08 GMT 40.617599 -75.220642 23,700 240 359 1216
2020-11-21 20:34:05 GMT 40.619759 -75.215897 23,600 240 358 1344
2020-11-21 20:34:01 GMT 40.622726 -75.209412 23,525 240 358 1408
2020-11-21 20:33:58 GMT 40.626114 -75.201965 23,425 240 359 1472
2020-11-21 20:33:55 GMT 40.628326 -75.197105 23,425 240 359 1344
2020-11-21 20:33:52 GMT 40.630188 -75.193054 23,325 240 359 1344
2020-11-21 20:33:48 GMT 40.634354 -75.183960 23,225 240 359 1280
2020-11-21 20:33:45 GMT 40.636414 -75.179443 23,150 240 359 1280
2020-11-21 20:33:42 GMT 40.639359 -75.173012 23,000 240 359 1280
2020-11-21 20:33:38 GMT 40.645569 -75.159302 22,875 240 359 1344
2020-11-21 20:33:35 GMT 40.645569 -75.159302 22,950 240 359 1408
2020-11-21 20:33:31 GMT 40.648361 -75.153137 22,875 240 359 1408
2020-11-21 20:33:28 GMT 40.650742 -75.147888 22,800 240 359 1344
2020-11-21 20:33:25 GMT 40.655823 -75.136597 21,750 253 357 1856
2020-11-21 20:33:22 GMT 40.659050 -75.129509 22,650 240 358 1344
2020-11-21 20:33:19 GMT 40.659050 -75.129509 22,600 240 359 1344
2020-11-21 20:33:16 GMT 40.661270 -75.124634 22,500 240 359 1408
2020-11-21 20:33:13 GMT 40.664452 -75.117706 22,375 240 359 1280
2020-11-21 20:33:08 GMT 40.667942 -75.110031 22,375 241 358 1280
2020-11-21 20:33:05 GMT 40.670269 -75.104721 22,350 241 358 1280
2020-11-21 20:33:02 GMT 40.672668 -75.098999 22,275 242 358 1280
2020-11-21 20:32:59 GMT 40.674973 -75.093300 22,175 244 357 1280
2020-11-21 20:32:56 GMT 40.676926 -75.088135 22,125 245 356 1408
2020-11-21 20:32:53 GMT 40.679489 -75.081116 22,050 246 356 1472
2020-11-21 20:32:50 GMT 40.682232 -75.072823 21,925 248 356 1792
2020-11-21 20:32:47 GMT 40.684746 -75.064774 21,600 252 356 1856
2020-11-21 20:32:41 GMT 40.688187 -75.052124 21,500 253 357 1856
2020-11-21 20:32:38 GMT 40.690006 -75.044357 21,500 253 357 1856
2020-11-21 20:32:35 GMT 40.690006 -75.044357 21,500 254 357 1792
2020-11-21 20:32:32 GMT 40.691498 -75.037498 21,425 255 358 1728
2020-11-21 20:32:28 GMT 40.693081 -75.029945 21,275 255 357 1472
2020-11-21 20:32:25 GMT 40.694290 -75.024071 21,225 255 357 1408
2020-11-21 20:32:22 GMT 40.695316 -75.019020 21,175 255 357 1408
2020-11-21 20:32:18 GMT 40.697083 -75.010651 21,150 255 348 1024
2020-11-21 20:32:15 GMT 40.699219 -75.000305 21,000 255 356 1344
2020-11-21 20:32:12 GMT 40.700500 -74.994263 20,925 255 356 1280
2020-11-21 20:32:08 GMT 40.702160 -74.986305 20,850 255 355 1280
2020-11-21 20:32:05 GMT 40.703110 -74.981689 20,825 255 355 1280
2020-11-21 20:32:02 GMT 40.704437 -74.975449 20,700 255 354 1280
2020-11-21 20:31:59 GMT 40.707184 -74.962151 20,600 255 353 1216
2020-11-21 20:31:56 GMT 40.708767 -74.954720 20,525 255 353 1152
2020-11-21 20:31:53 GMT 40.708767 -74.954720 20,500 255 352 1088
2020-11-21 20:31:50 GMT 40.709606 -74.950539 20,375 255 351 1088
2020-11-21 20:31:47 GMT 40.710861 -74.944672 20,450 255 351 1088
2020-11-21 20:31:43 GMT 40.712311 -74.937683 20,400 255 351 1152
2020-11-21 20:31:40 GMT 40.715424 -74.922791 20,075 255 349 1344
2020-11-21 20:31:37 GMT 40.715424 -74.922791 20,250 255 349 1472
2020-11-21 20:31:34 GMT 40.716431 -74.917847 20,125 255 348 1408
2020-11-21 20:31:31 GMT 40.717758 -74.911499 20,100 255 348 1216
2020-11-21 20:31:28 GMT 40.720592 -74.897858 20,025 255 347 960
2020-11-21 20:31:24 GMT 40.720592 -74.897858 20,000 255 346 1024
2020-11-21 20:31:21 GMT 40.722015 -74.890930 19,850 255 344 1472
2020-11-21 20:31:18 GMT 40.723709 -74.882751 19,850 255 344 1472
2020-11-21 20:31:14 GMT 40.724922 -74.876823 19,700 255 343 1408
2020-11-21 20:31:10 GMT 40.726868 -74.867432 19,625 255 343 1408
2020-11-21 20:31:06 GMT 40.727993 -74.862152 19,600 255 343 1408
2020-11-21 20:31:03 GMT 40.729626 -74.854286 19,500 255 342 1536
2020-11-21 20:30:59 GMT 40.731216 -74.846497 19,425 255 342 1536
2020-11-21 20:30:55 GMT 40.732864 -74.838623 19,225 255 342 1536
2020-11-21 20:30:51 GMT 40.734879 -74.828796 19,050 255 339 1472
2020-11-21 20:30:48 GMT 40.735519 -74.825806 19,050 255 339 1472
2020-11-21 20:30:45 GMT 40.737446 -74.816460 19,050 255 340 1472
2020-11-21 20:30:42 GMT 40.738174 -74.812744 19,000 255 339 1536
2020-11-21 20:30:38 GMT 40.739773 -74.805161 18,800 255 339 1728
2020-11-21 20:30:34 GMT 40.741653 -74.795959 18,725 255 339 1728
2020-11-21 20:30:31 GMT 40.742378 -74.792366 18,650 255 338 1600
2020-11-21 20:30:28 GMT 40.743805 -74.785583 18,550 255 338 1600
2020-11-21 20:30:25 GMT 40.745033 -74.779625 18,475 255 338 1472
2020-11-21 20:30:22 GMT 40.746662 -74.771889 18,450 255 338 1472
2020-11-21 20:30:18 GMT 40.748245 -74.764160 18,375 255 336 1792
2020-11-21 20:30:14 GMT 40.749893 -74.756226 18,200 255 337 1728
2020-11-21 20:30:11 GMT 40.752365 -74.744324 18,100 255 336 1792
2020-11-21 20:30:08 GMT 40.752365 -74.744324 18,025 255 336 1792
2020-11-21 20:30:05 GMT 40.753365 -74.739304 17,850 255 336 1728
2020-11-21 20:30:01 GMT 40.754929 -74.731628 17,875 255 336 1664
2020-11-21 20:29:58 GMT 40.756714 -74.722961 17,750 255 336 1472
2020-11-21 20:29:55 GMT 40.757275 -74.720200 17,625 255 335 1600
2020-11-21 20:29:51 GMT 40.758904 -74.712273 17,600 255 334 1664
2020-11-21 20:29:48 GMT 40.760147 -74.706360 17,525 255 334 1664
2020-11-21 20:29:45 GMT 40.761566 -74.699280 17,450 255 333 1408
2020-11-21 20:29:39 GMT 40.764214 -74.686554 17,050 255 330 1856
2020-11-21 20:29:35 GMT 40.765980 -74.678001 17,150 255 331 1664
2020-11-21 20:29:32 GMT 40.766956 -74.673134 17,100 255 331 1728
2020-11-21 20:29:28 GMT 40.768681 -74.664642 16,975 255 330 1920
2020-11-21 20:29:24 GMT 40.770031 -74.658279 16,875 256 330 1984
2020-11-21 20:29:21 GMT 40.770859 -74.653992 16,775 256 330 1728
2020-11-21 20:29:18 GMT 40.772682 -74.645042 16,675 255 330 1088
2020-11-21 20:29:15 GMT 40.773335 -74.641991 16,675 255 330 768
2020-11-21 20:29:12 GMT 40.775059 -74.633438 16,650 255 327 0
2020-11-21 20:29:04 GMT 40.778271 -74.618080 16,650 255 326 64
2020-11-21 20:29:00 GMT 40.779602 -74.611511 16,650 255 327 128
2020-11-21 20:28:56 GMT 40.781063 -74.604225 16,625 255 327 -64
2020-11-21 20:28:53 GMT 40.782181 -74.598854 16,650 255 327 -128
2020-11-21 20:28:50 GMT 40.783493 -74.592346 16,650 255 327 -128
2020-11-21 20:28:47 GMT 40.784454 -74.587708 16,650 255 326 -128
2020-11-21 20:28:44 GMT 40.785625 -74.581940 16,650 255 326 64
2020-11-21 20:28:41 GMT 40.787350 -74.573509 16,625 255 326 128
2020-11-21 20:28:37 GMT 40.788326 -74.568893 16,625 256 326 64
2020-11-21 20:28:34 GMT 40.790653 -74.557404 16,650 256 326 -64
2020-11-21 20:28:31 GMT 40.791824 -74.551636 16,650 256 325 -128
2020-11-21 20:28:28 GMT 40.791824 -74.551636 16,650 256 325 128
2020-11-21 20:28:25 GMT 40.793446 -74.543549 16,650 256 325 0
2020-11-21 20:28:22 GMT 40.794239 -74.539742 16,650 255 325 -128
2020-11-21 20:28:19 GMT 40.795715 -74.532410 16,625 256 325 128
2020-11-21 20:28:16 GMT 40.796890 -74.526695 16,650 256 326 64
2020-11-21 20:28:13 GMT 40.797684 -74.522888 16,650 256 326 -128
2020-11-21 20:28:10 GMT 40.798965 -74.516357 16,650 256 326 -128
2020-11-21 20:28:07 GMT 40.800064 -74.510986 16,650 255 325 -128
2020-11-21 20:28:04 GMT 40.802444 -74.499512 16,650 255 325 64
2020-11-21 20:28:01 GMT 40.803596 -74.493736 16,650 255 325 128
2020-11-21 20:27:58 GMT 40.803596 -74.493736 16,625 256 326 64
2020-11-21 20:27:55 GMT 40.806290 -74.480469 16,625 256 326 64
2020-11-21 20:27:52 GMT 40.806290 -74.480469 16,625 256 326 -64
2020-11-21 20:27:47 GMT 40.808212 -74.471130 16,650 255 326 -128
2020-11-21 20:27:43 GMT 40.811050 -74.457275 16,650 255 326 64
2020-11-21 20:27:40 GMT 40.811050 -74.457275 16,650 255 326 256
2020-11-21 20:27:36 GMT 40.812206 -74.451538 16,600 256 325 704
2020-11-21 20:27:33 GMT 40.814758 -74.438904 16,550 256 323 1088
2020-11-21 20:27:30 GMT 40.814758 -74.438904 16,525 256 322 1216
2020-11-21 20:27:27 GMT 40.815884 -74.433182 16,425 256 321 1600
2020-11-21 20:27:24 GMT 40.816814 -74.428627 16,375 256 321 1792
2020-11-21 20:27:21 GMT 40.817886 -74.423325 16,275 256 320 1856
2020-11-21 20:27:18 GMT 40.819336 -74.416321 16,175 256 320 1792
2020-11-21 20:27:15 GMT 40.821671 -74.404846 16,025 256 319 1728
2020-11-21 20:27:12 GMT 40.821671 -74.404846 14,900 256 319 1792
2020-11-21 20:27:08 GMT 40.823044 -74.398071 15,925 256 319 1792
2020-11-21 20:27:05 GMT 40.825661 -74.385056 15,700 256 317 1728
2020-11-21 20:27:01 GMT 40.825661 -74.385056 15,625 256 317 1664
2020-11-21 20:26:58 GMT 40.826843 -74.379333 15,650 255 316 1664
2020-11-21 20:26:55 GMT 40.828266 -74.372200 15,500 255 316 1600
2020-11-21 20:26:52 GMT 40.829407 -74.366638 15,400 256 314 1792
2020-11-21 20:26:49 GMT 40.830502 -74.361023 15,325 256 314 1856
2020-11-21 20:26:46 GMT 40.831512 -74.356262 15,250 256 313 1920
2020-11-21 20:26:43 GMT 40.832458 -74.351410 15,150 256 313 1856
2020-11-21 20:26:40 GMT 40.833668 -74.345543 15,050 255 312 1856
2020-11-21 20:26:37 GMT 40.834671 -74.340698 14,900 255 311 1728
2020-11-21 20:26:34 GMT 40.835762 -74.335121 14,900 256 311 1664
2020-11-21 20:26:31 GMT 40.837189 -74.328186 14,700 256 310 1600
2020-11-21 20:26:28 GMT 40.838058 -74.323792 14,425 256 310 1600
2020-11-21 20:26:24 GMT 40.839844 -74.315063 14,600 256 308 1728
2020-11-21 20:26:21 GMT 40.840576 -74.311401 14,325 256 307 1856
2020-11-21 20:26:18 GMT 40.841583 -74.306274 14,450 256 306 2048
2020-11-21 20:26:14 GMT 40.843460 -74.297058 14,250 256 306 2432
2020-11-21 20:26:11 GMT 40.844280 -74.292923 14,125 256 306 2368
2020-11-21 20:26:08 GMT 40.845448 -74.287117 14,050 256 306 2432
2020-11-21 20:26:05 GMT 40.846470 -74.281998 13,925 256 306 2432
2020-11-21 20:26:02 GMT 40.847260 -74.278259 13,850 256 306 2432
2020-11-21 20:25:58 GMT 40.849045 -74.269409 13,600 256 307 2816
2020-11-21 20:25:55 GMT 40.850239 -74.263397 13,475 256 307 2944
2020-11-21 20:25:52 GMT 40.850922 -74.259949 13,375 256 308 2944
2020-11-21 20:25:49 GMT 40.852341 -74.252808 13,175 256 310 2944
2020-11-21 20:25:45 GMT 40.853989 -74.244629 12,950 256 310 2880
2020-11-21 20:25:42 GMT 40.854721 -74.240967 12,825 256 311 2880
2020-11-21 20:25:39 GMT 40.856049 -74.234375 12,650 256 312 2752
2020-11-21 20:25:36 GMT 40.857239 -74.228577 12,550 256 313 2688
2020-11-21 20:25:32 GMT 40.858246 -74.223389 12,350 256 313 2624
2020-11-21 20:25:29 GMT 40.860760 -74.211082 12,075 256 309 1600
2020-11-21 20:25:23 GMT 40.861816 -74.205627 11,975 256 313 2176
2020-11-21 20:25:19 GMT 40.863274 -74.198479 11,900 256 311 1984
2020-11-21 20:25:16 GMT 40.864159 -74.193985 11,850 256 311 1984
2020-11-21 20:25:13 GMT 40.865570 -74.186951 11,675 256 311 1792
2020-11-21 20:25:10 GMT 40.866623 -74.181824 11,625 256 309 1600
2020-11-21 20:25:07 GMT 40.867905 -74.175354 11,550 256 307 1280
2020-11-21 20:25:04 GMT 40.870102 -74.164429 11,475 256 296 512
2020-11-21 20:25:01 GMT 40.870102 -74.164429 11,450 256 301 576
2020-11-21 20:24:58 GMT 40.871246 -74.158691 11,425 256 269 896
2020-11-21 20:24:55 GMT 40.872166 -74.154160 11,400 256 293 448
2020-11-21 20:24:51 GMT 40.874771 -74.141235 11,375 256 287 512
2020-11-21 20:24:47 GMT 40.874771 -74.141235 11,325 256 284 576
2020-11-21 20:24:44 GMT 40.875706 -74.136490 11,325 256 280 704
2020-11-21 20:24:41 GMT 40.876556 -74.132202 11,300 256 276 768
2020-11-21 20:24:38 GMT 40.877800 -74.126129 11,250 256 273 768
2020-11-21 20:24:35 GMT 40.878891 -74.120605 11,225 256 270 832
2020-11-21 20:24:32 GMT 40.879761 -74.116211 11,125 256 265 1344
2020-11-21 20:24:29 GMT 40.880539 -74.112244 11,100 256 264 1536
2020-11-21 20:24:26 GMT 40.881775 -74.106079 10,950 256 261 2432
2020-11-21 20:24:23 GMT 40.882732 -74.101410 10,800 256 261 2880
2020-11-21 20:24:20 GMT 40.883339 -74.098228 10,725 256 261 2944
2020-11-21 20:24:17 GMT 40.884598 -74.092110 10,575 256 262 2944
2020-11-21 20:24:14 GMT 40.885342 -74.088303 10,500 256 262 3008
2020-11-21 20:24:09 GMT 40.886902 -74.080566 10,175 256 261 2816
2020-11-21 20:24:06 GMT 40.887497 -74.077515 10,075 256 261 2816
2020-11-21 20:24:03 GMT 40.889809 -74.065956 9,850 256 260 2752
2020-11-21 20:24:00 GMT 40.889809 -74.065956 9,750 256 260 2752
2020-11-21 20:23:56 GMT 40.890747 -74.061340 9,525 256 259 2688
2020-11-21 20:23:53 GMT 40.891708 -74.056396 9,525 256 259 2624
2020-11-21 20:23:49 GMT 40.892975 -74.049973 9,200 256 255 2432
2020-11-21 20:23:46 GMT 40.893631 -74.046631 7,300 306 250 2944
2020-11-21 20:23:43 GMT 40.894791 -74.040863 9,100 256 254 2560
2020-11-21 20:23:40 GMT 40.895721 -74.036179 8,900 256 253 2752
2020-11-21 20:23:37 GMT 40.896465 -74.032494 8,800 256 252 2816
2020-11-21 20:23:32 GMT 40.897934 -74.025085 8,650 256 251 2944
2020-11-21 20:23:29 GMT 40.899075 -74.019508 8,275 256 250 3392
2020-11-21 20:23:25 GMT 40.900143 -74.014145 8,150 256 250 3456
2020-11-21 20:23:22 GMT 40.900909 -74.010376 7,975 256 250 3392
2020-11-21 20:23:19 GMT 40.901688 -74.006165 7,750 258 250 3264
2020-11-21 20:23:16 GMT 40.902466 -74.002014 7,700 259 250 3200
2020-11-21 20:23:12 GMT 40.903728 -73.990799 7,325 265 250 3264
2020-11-21 20:23:09 GMT 40.903728 -73.990799 7,225 267 250 3328
2020-11-21 20:23:06 GMT 40.903976 -73.986328 7,150 268 250 3328
2020-11-21 20:23:01 GMT 40.903793 -73.977173 6,800 276 250 3328
2020-11-21 20:22:58 GMT 40.903587 -73.974319 6,725 280 250 3456
2020-11-21 20:22:55 GMT 40.903172 -73.970200 6,450 282 250 3520
2020-11-21 20:22:52 GMT 40.902519 -73.965889 6,325 285 250 3584
2020-11-21 20:22:49 GMT 40.901402 -73.960587 6,225 288 250 3584
2020-11-21 20:22:46 GMT 40.897156 -73.947937 5,750 297 251 3712
2020-11-21 20:22:40 GMT 40.897156 -73.947937 5,625 297 252 3648
2020-11-21 20:22:37 GMT 40.895351 -73.943169 4,875 299 252 3200
2020-11-21 20:22:33 GMT 40.893082 -73.937439 5,250 298 252 3328
2020-11-21 20:22:30 GMT 40.891438 -73.933372 5,150 299 251 3264
2020-11-21 20:22:25 GMT 40.889969 -73.916931 3,600 345 227 512
2020-11-21 20:22:22 GMT 40.886921 -73.915840 3,600 345 227 512
2020-11-21 20:22:19 GMT 40.883869 -73.914749 3,600 345 227 512
2020-11-21 20:22:16 GMT 40.880829 -73.913651 3,600 345 227 512
2020-11-21 20:22:13 GMT 40.877781 -73.912560 3,600 345 227 512
2020-11-21 20:22:10 GMT 40.874729 -73.911469 3,600 345 227 512
2020-11-21 20:22:07 GMT 40.868629 -73.909286 3,600 345 227 512
2020-11-21 20:22:04 GMT 40.868629 -73.909286 3,600 345 227 512
2020-11-21 20:22:01 GMT 40.865589 -73.908203 3,600 345 227 1696
2020-11-21 20:21:58 GMT 40.862541 -73.907112 3,600 345 227 1696
2020-11-21 20:21:55 GMT 40.859032 -73.905647 3,500 346 203 1696
2020-11-21 20:21:52 GMT 40.856281 -73.904808 3,500 346 203 1696
2020-11-21 20:21:49 GMT 40.853008 -73.903976 3,400 346 188 1696
2020-11-21 20:21:46 GMT 40.850250 -73.902687 3,400 346 188 1696
2020-11-21 20:21:43 GMT 40.847771 -73.902039 2,975 348 196 1696
2020-11-21 20:21:40 GMT 40.845428 -73.901428 2,975 348 196 1696
2020-11-21 20:21:37 GMT 40.842850 -73.900772 2,975 348 205 1696
2020-11-21 20:21:34 GMT 40.840000 -73.900017 2,800 348 199 1696
2020-11-21 20:21:31 GMT 40.837292 -73.899307 2,600 349 204 1696
2020-11-21 20:21:28 GMT 40.834549 -73.898613 2,300 349 212 1696
2020-11-21 20:21:25 GMT 40.831619 -73.897858 2,275 349 205 1696
2020-11-21 20:21:22 GMT 40.828861 -73.897186 2,100 349 202 1696
2020-11-21 20:21:19 GMT 40.826118 -73.896553 2,100 350 196 1696
2020-11-21 20:21:16 GMT 40.820721 -73.895233 1,925 349 197 1696
2020-11-21 20:21:13 GMT 40.820721 -73.895233 1,800 349 191 1696
2020-11-21 20:21:10 GMT 40.818081 -73.894592 1,700 349 190 1696
2020-11-21 20:21:07 GMT 40.815491 -73.893929 1,700 349 188 1696
2020-11-21 20:21:04 GMT 40.812988 -73.893333 1,600 349 183 1696
2020-11-21 20:21:01 GMT 40.808060 -73.892128 1,575 349 173 448
2020-11-21 20:20:58 GMT 40.808060 -73.892128 1,500 348 169 448
2020-11-21 20:20:55 GMT 40.805779 -73.891541 1,425 347 165 448
2020-11-21 20:20:52 GMT 40.803501 -73.890869 1,400 347 159 448
2020-11-21 20:20:49 GMT 40.801380 -73.890221 1,350 346 160 448
2020-11-21 20:20:46 GMT 40.799271 -73.889557 1,225 346 151 448
2020-11-21 20:20:43 GMT 40.797211 -73.888969 1,050 343 142 448
2020-11-21 20:20:40 GMT 40.795269 -73.888191 1,050 345 136 448
2020-11-21 20:20:37 GMT 40.793468 -73.887604 1,050 344 138 448
2020-11-21 20:20:34 GMT 40.791618 -73.886810 950 343 132 448
2020-11-21 20:20:31 GMT 40.789879 -73.886009 850 343 130 448
2020-11-21 20:20:28 GMT 40.788212 -73.885231 700 337 134 448
2020-11-21 20:20:25 GMT 40.786541 -73.884262 525 324 135 448
2020-11-21 20:20:22 GMT 40.784981 -73.882874 450 317 130 448
2020-11-21 20:20:19 GMT 40.783669 -73.881279 300 310 132 448
2020-11-21 20:20:16 GMT 40.782539 -73.879257 250 303 136 448
2020-11-21 20:20:13 GMT 40.781559 -73.877167 -75 300 135 448
2020-11-21 20:20:10 GMT 40.780571 -73.875061 -175 301 146 448
2020-11-21 20:20:07 GMT 40.779541 -73.872787 -350 301 148 448
2020-11-21 20:20:04 GMT 40.778488 -73.870560 -350 301 143 448
2020-11-21 20:20:01 GMT 40.777481 -73.868408 -350 302 130 448
2020-11-21 20:19:58 GMT 40.776489 -73.866371 -350 302 122 448
2020-11-21 20:19:55 GMT 40.775612 -73.864532 -350 302 111 448
2020-11-21 20:19:52 GMT 40.774849 -73.862900 -350 302 98 448
2020-11-21 20:19:49 GMT 40.773548 -73.860199 -350 302 80 448
2020-11-21 20:19:46 GMT 40.773548 -73.860199 0 302 66 448
2020-11-21 20:19:43 GMT 40.773060 -73.859222 0 300 45 448
2020-11-21 20:19:40 GMT 40.772690 -73.858429 0 300 31 0
2020-11-21 20:19:37 GMT 40.772461 -73.857887 0 304 14 0
2020-11-21 20:19:34 GMT 40.772320 -73.857643 0 301 0 0
2020-11-21 20:19:31 GMT 40.772320 -73.857643 0 300 0 0
2020-11-21 20:19:28 GMT 40.772331 -73.857658 0 296 4 0
2020-11-21 20:19:25 GMT 40.772301 -73.857620 0 287 6 0
2020-11-21 20:19:22 GMT 40.772301 -73.857468 0 313 8 0
2020-11-21 20:19:19 GMT 40.772221 -73.857361 0 332 7 0
2020-11-21 20:19:16 GMT 40.772110 -73.857368 0 11 7 0
2020-11-21 20:19:13 GMT 40.772018 -73.857437 0 23 9 0
2020-11-21 20:19:10 GMT 40.771919 -73.857491 0 35 10 0
2020-11-21 20:19:07 GMT 40.771801 -73.857597 0 39 10 0
2020-11-21 20:19:04 GMT 40.771702 -73.857719 0 45 7 0
2020-11-21 20:19:01 GMT 40.771561 -73.857880 0 38 5 0
2020-11-21 20:18:58 GMT 40.771561 -73.857880 0 43 5 0
2020-11-21 20:18:55 GMT 40.771511 -73.857933 0 59 4 0
2020-11-21 20:18:52 GMT 40.771481 -73.857986 0 78 6 0
2020-11-21 20:18:49 GMT 40.771450 -73.858093 0 95 5 0
2020-11-21 20:18:46 GMT 40.771488 -73.858261 0 124 6 0
2020-11-21 20:18:43 GMT 40.771488 -73.858261 0 120 6 0
2020-11-21 20:18:40 GMT 40.771549 -73.858368 0 114 6 0
2020-11-21 20:18:37 GMT 40.771580 -73.858459 0 124 6 0
2020-11-21 20:18:34 GMT 40.771679 -73.858673 0 124 9 0
2020-11-21 20:18:31 GMT 40.771679 -73.858673 0 122 7 0
2020-11-21 20:18:28 GMT 40.771751 -73.858810 0 125 5 0
2020-11-21 20:18:25 GMT 40.771790 -73.858902 0 121 8 0
2020-11-21 20:18:22 GMT 40.771851 -73.859001 0 129 6 0
2020-11-21 20:18:19 GMT 40.771900 -73.859093 0 120 6 0
2020-11-21 20:18:16 GMT 40.771931 -73.859161 0 124 5 0
2020-11-21 20:18:13 GMT 40.771969 -73.859238 0 127 6 0
2020-11-21 20:18:10 GMT 40.772018 -73.859306 0 115 6 0
2020-11-21 20:18:07 GMT 40.772049 -73.859390 0 115 6 0
2020-11-21 20:18:04 GMT 40.772099 -73.859497 0 114 7 0
2020-11-21 20:18:01 GMT 40.772141 -73.859612 0 123 6 0
2020-11-21 20:17:58 GMT 40.772190 -73.859718 0 124 6 0
2020-11-21 20:17:55 GMT 40.772289 -73.859901 0 127 6 0
2020-11-21 20:17:52 GMT 40.772289 -73.859901 0 119 5 0
2020-11-21 20:17:49 GMT 40.772331 -73.859978 0 129 6 0
2020-11-21 20:17:46 GMT 40.772362 -73.860100 0 127 6 0
2020-11-21 20:17:43 GMT 40.772430 -73.860184 0 119 7 0
2020-11-21 20:17:40 GMT 40.772469 -73.860283 0 123 7 0
2020-11-21 20:17:37 GMT 40.772518 -73.860397 0 127 6 0
2020-11-21 20:17:34 GMT 40.772572 -73.860481 0 128 7 0
2020-11-21 20:17:31 GMT 40.772629 -73.860580 0 124 6 0
2020-11-21 20:17:28 GMT 40.772678 -73.860649 0 116 7 0
2020-11-21 20:17:25 GMT 40.772732 -73.860779 0 117 7 0
2020-11-21 20:17:22 GMT 40.772770 -73.860870 0 124 6 0
2020-11-21 20:17:19 GMT 40.772820 -73.860992 0 122 7 0
2020-11-21 20:17:16 GMT 40.772869 -73.861099 0 121 7 0
2020-11-21 20:17:13 GMT 40.772919 -73.861198 0 124 8 0
2020-11-21 20:17:10 GMT 40.772991 -73.861320 0 118 8 0
2020-11-21 20:17:07 GMT 40.773041 -73.861450 0 125 8 0
2020-11-21 20:17:04 GMT 40.773109 -73.861580 0 125 8 0
2020-11-21 20:17:01 GMT 40.773170 -73.861679 0 121 10 0
2020-11-21 20:16:58 GMT 40.773338 -73.862030 0 100 12 0
2020-11-21 20:16:55 GMT 40.773338 -73.862030 0 72 9 0
2020-11-21 20:16:52 GMT 40.773361 -73.862190 0 73 9 0
2020-11-21 20:16:49 GMT 40.773338 -73.862373 0 63 8 0
2020-11-21 20:16:46 GMT 40.773289 -73.862473 0 61 7 0
2020-11-21 20:16:43 GMT 40.773251 -73.862617 0 67 8 0
2020-11-21 20:16:40 GMT 40.773102 -73.862732 0 91 8 0
2020-11-21 20:16:37 GMT 40.773090 -73.862900 0 92 9 0
2020-11-21 20:16:34 GMT 40.773102 -73.863037 0 115 9 0
2020-11-21 20:16:31 GMT 40.773102 -73.863190 0 121 8 0
2020-11-21 20:16:28 GMT 40.773159 -73.863350 0 121 7 0
2020-11-21 20:16:25 GMT 40.773201 -73.863426 0 122 7 0
2020-11-21 20:16:22 GMT 40.773369 -73.863747 0 119 10 0
2020-11-21 20:16:19 GMT 40.773369 -73.863747 0 116 6 0
2020-11-21 20:16:16 GMT 40.773430 -73.863876 0 124 8 0
2020-11-21 20:16:13 GMT 40.773491 -73.864029 0 121 8 0
2020-11-21 20:16:10 GMT 40.773540 -73.864098 0 351 4 0
2020-11-21 20:16:07 GMT 40.773602 -73.864227 0 318 0 0
2020-11-21 20:16:04 GMT 40.773621 -73.864250 0 318 0 0
2020-11-21 20:16:01 GMT 40.773628 -73.864258 0 318 0 0
2020-11-21 20:15:58 GMT 40.773628 -73.864281 0 318 0 0
2020-11-21 20:15:55 GMT 40.773628 -73.864304 0 318 0 0
2020-11-21 20:15:52 GMT 40.773628 -73.864281 0 318 0 0
2020-11-21 20:15:49 GMT 40.773628 -73.864273 0 318 0 0
2020-11-21 20:15:46 GMT 40.773640 -73.864273 0 318 0 0
2020-11-21 20:15:43 GMT 40.773628 -73.864273 0 318 0 0
2020-11-21 20:15:40 GMT 40.773628 -73.864281 0 318 0 0
2020-11-21 20:15:37 GMT 40.773621 -73.864281 0 318 0 0
2020-11-21 20:15:34 GMT 40.773628 -73.864273 0 318 0 0
2020-11-21 20:15:31 GMT 40.773628 -73.864273 0 318 0 0
2020-11-21 20:15:28 GMT 40.773621 -73.864273 0 318 0 0
2020-11-21 20:15:25 GMT 40.773621 -73.864281 0 318 0 0
2020-11-21 20:15:22 GMT 40.773628 -73.864273 0 318 0 0
2020-11-21 20:15:19 GMT 40.773621 -73.864281 0 318 0 0
2020-11-21 20:15:16 GMT 40.773621 -73.864273 0 318 0 0
2020-11-21 20:15:13 GMT 40.773628 -73.864243 0 318 2 0
2020-11-21 20:15:10 GMT 40.773628 -73.864288 0 318 0 0
2020-11-21 20:15:07 GMT 40.773621 -73.864288 0 318 0 0
2020-11-21 20:15:03 GMT 40.773621 -73.864281 0 318 0 0
2020-11-21 20:15:00 GMT 40.773628 -73.864281 0 318 0 0
2020-11-21 20:14:56 GMT 40.773628 -73.864258 0 318 0 0
2020-11-21 20:14:53 GMT 40.773628 -73.864258 0 318 0 0
2020-11-21 20:14:50 GMT 40.773621 -73.864273 0 318 0 0
2020-11-21 20:14:47 GMT 40.773628 -73.864258 0 318 0 0
2020-11-21 20:14:44 GMT 40.773628 -73.864273 0 318 0 0
2020-11-21 20:14:41 GMT 40.773640 -73.864258 0 318 0 0
2020-11-21 20:14:38 GMT 40.773628 -73.864281 0 318 0 0
2020-11-21 20:14:35 GMT 40.773628 -73.864273 0 318 0 0
2020-11-21 20:14:32 GMT 40.773628 -73.864281 0 318 0 0
2020-11-21 20:14:29 GMT 40.773628 -73.864258 0 318 0 0
2020-11-21 20:14:26 GMT 40.773670 -73.864273 0 318 0 0
2020-11-21 20:14:23 GMT 40.773628 -73.864288 0 318 0 0
2020-11-21 20:14:16 GMT 40.773628 -73.864281 0 318 0 0
2020-11-21 20:14:11 GMT 40.773628 -73.864273 0 318 0 0
2020-11-21 20:14:08 GMT 40.773640 -73.864273 0 318 0 0
2020-11-21 20:14:04 GMT 40.773628 -73.864273 0 318 0 0
2020-11-21 20:14:01 GMT 40.773640 -73.864326 0 318 0 0
2020-11-21 20:13:51 GMT 40.773628 -73.864273 0 318 1 0
2020-11-21 20:13:48 GMT 40.773609 -73.864243 0 314 3 0
2020-11-21 20:13:44 GMT 40.773609 -73.864243 0 316 4 0
2020-11-21 20:13:41 GMT 40.773571 -73.864189 0 313 3 0
2020-11-21 20:13:38 GMT 40.773499 -73.864067 0 317 4 0
2020-11-21 20:13:35 GMT 40.773499 -73.864067 0 324 3 0
2020-11-21 20:13:32 GMT 40.773472 -73.864029 0 332 5 0
2020-11-21 20:13:29 GMT 40.773399 -73.864014 0 331 4 0
2020-11-21 20:13:26 GMT 40.773369 -73.863953 0 343 3 0
2020-11-21 20:13:23 GMT 40.773289 -73.863899 0 2 1 0
2020-11-21 20:13:20 GMT 40.773289 -73.863899 0 8 2 0
2020-11-21 20:13:17 GMT 40.773258 -73.863861 0 43 2
2020-11-21 20:13:14 GMT 40.773258 -73.863876 0 49 4
2020-11-21 20:13:11 GMT 40.773178 -73.863838 0 87 3
2020-11-21 20:13:08 GMT 40.773140 -73.863838 0 87 3
2020-11-21 20:13:05 GMT 40.773109 -73.863838 0 87 3
2020-11-21 20:13:02 GMT 40.773060 -73.863831 0 87 3
2020-11-21 20:12:59 GMT 40.773010 -73.863831 0 87 3
2020-11-21 20:12:56 GMT 40.772999 -73.863853 0 87 4
2020-11-21 20:12:48 GMT 40.772930 -73.863953 0 227 3
2020-11-21 20:11:56 GMT 40.772850 -73.864288 0 261 0
2020-11-21 20:10:42 GMT 40.772846 -73.864296 0 261 0
2020-11-21 20:10:32 GMT 40.772850 -73.864288 0 261 0
2020-11-21 20:09:47 GMT 40.772846 -73.864296 0 261 0

Making use of Plane Finder data

You are free to use the raw flight data, aircraft information and images provided in this report for your own purposes provided the data is correctly attributed to Plane Finder. We ask that you please credit Plane Finder and link to planefinder.net in close proximity to the content.

Optionally one of the following logos (no smaller then 150x24px) can be used and must link to planefinder.net

Embedding the Plane Finder map

You are welcome to embed the Plane Finder playback map on your website to offer visitors a more interactive experience. We suggest using the following HTML code:

<iframe src="//planefinder.net/data/report/DL5646-N873RW-7700-squawk-2020-11-21/map" width="800" height="600" seamless="seamless"></iframe>

Where our data comes from

Plane Finder has a global network of data feeds and antenna radars that receive data broadcast directly from aircraft. The primary technologies used are ADS-B and MLAT. We also show feeds from the FAA and a FLARM glider feed.

Click here to find out more about the Plane Finder network.

How we collect our data